<?xml version="1.0" encoding="UTF-8" standalone="no" ?>
<gpx xmlns="http://www.topografix.com/GPX/1/1" xmlns:xsi="http://www.w3.org/2001/XMLSchema-instance" xsi:schemaLocation="http://www.topografix.com/GPX/1/1 http://www.topografix.com/GPX/1/1/gpx.xsd" version="1.1" creator="VisuGPX - https://www.visugpx.com">
  <metadata>
    <name>Redon_Chateaulin</name>
    <desc><![CDATA[Randonnée cyclotouriste de Redon à Châteaulin par le chemin de halage du canal de Nantes à Brest avec quelques échappées vers Rostrenen, Carhaix et Pleyben.]]></desc>
  </metadata>
  <trk>
    <name><![CDATA[ACTIVE LOG 002]]></name>
    <trkseg>
      <trkpt lat="47.64528" lon="-2.08988">
        <ele>-7.072509765625</ele>
        <time>2012-04-15T06:48:35Z</time>
      </trkpt>
      <trkpt lat="47.64522" lon="-2.08992">
        <ele>-0.3433837890625</ele>
        <time>2012-04-15T06:49:20Z</time>
      </trkpt>
      <trkpt lat="47.64517" lon="-2.08992">
        <ele>0.137451171875</ele>
        <time>2012-04-15T06:52:03Z</time>
      </trkpt>
      <trkpt lat="47.64517" lon="-2.08995">
        <ele>0.6180419921875</ele>
        <time>2012-04-15T06:54:41Z</time>
      </trkpt>
      <trkpt lat="47.64517" lon="-2.08994">
        <ele>0.137451171875</ele>
        <time>2012-04-15T06:55:20Z</time>
      </trkpt>
      <trkpt lat="47.64517" lon="-2.08995">
        <ele>0.137451171875</ele>
        <time>2012-04-15T06:55:51Z</time>
      </trkpt>
      <trkpt lat="47.64525" lon="-2.0899">
        <ele>0.6180419921875</ele>
        <time>2012-04-15T06:56:07Z</time>
      </trkpt>
      <trkpt lat="47.6456" lon="-2.08968">
        <ele>-0.8240966796875</ele>
        <time>2012-04-15T06:56:20Z</time>
      </trkpt>
      <trkpt lat="47.64579" lon="-2.08953">
        <ele>-1.7852783203125</ele>
        <time>2012-04-15T06:56:31Z</time>
      </trkpt>
      <trkpt lat="47.64601" lon="-2.08942">
        <ele>-2.2659912109375</ele>
        <time>2012-04-15T06:57:17Z</time>
      </trkpt>
      <trkpt lat="47.64664" lon="-2.089">
        <ele>-2.2659912109375</ele>
        <time>2012-04-15T06:57:36Z</time>
      </trkpt>
      <trkpt lat="47.64756" lon="-2.08837">
        <ele>-2.7467041015625</ele>
        <time>2012-04-15T06:58:01Z</time>
      </trkpt>
      <trkpt lat="47.64847" lon="-2.0877">
        <ele>-3.227294921875</ele>
        <time>2012-04-15T06:58:26Z</time>
      </trkpt>
      <trkpt lat="47.64893" lon="-2.08721">
        <ele>0.137451171875</ele>
        <time>2012-04-15T06:58:45Z</time>
      </trkpt>
      <trkpt lat="47.64893" lon="-2.08721">
        <ele>-0.3433837890625</ele>
        <time>2012-04-15T06:59:00Z</time>
      </trkpt>
      <trkpt lat="47.64897" lon="-2.08712">
        <ele>0.137451171875</ele>
        <time>2012-04-15T06:59:13Z</time>
      </trkpt>
      <trkpt lat="47.64916" lon="-2.08731">
        <ele>-0.3433837890625</ele>
        <time>2012-04-15T06:59:19Z</time>
      </trkpt>
      <trkpt lat="47.64935" lon="-2.08777">
        <ele>0.137451171875</ele>
        <time>2012-04-15T06:59:32Z</time>
      </trkpt>
      <trkpt lat="47.64961" lon="-2.08859">
        <ele>1.0986328125</ele>
        <time>2012-04-15T06:59:48Z</time>
      </trkpt>
      <trkpt lat="47.65007" lon="-2.0901">
        <ele>2.06005859375</ele>
        <time>2012-04-15T07:00:16Z</time>
      </trkpt>
      <trkpt lat="47.65045" lon="-2.09135">
        <ele>2.06005859375</ele>
        <time>2012-04-15T07:00:42Z</time>
      </trkpt>
      <trkpt lat="47.65101" lon="-2.0931">
        <ele>4.94384765625</ele>
        <time>2012-04-15T07:01:09Z</time>
      </trkpt>
      <trkpt lat="47.6511" lon="-2.09337">
        <ele>5.9052734375</ele>
        <time>2012-04-15T07:01:15Z</time>
      </trkpt>
      <trkpt lat="47.65144" lon="-2.09435">
        <ele>7.827880859375</ele>
        <time>2012-04-15T07:01:36Z</time>
      </trkpt>
      <trkpt lat="47.65195" lon="-2.09591">
        <ele>10.231201171875</ele>
        <time>2012-04-15T07:01:59Z</time>
      </trkpt>
      <trkpt lat="47.65234" lon="-2.0971">
        <ele>9.7506103515625</ele>
        <time>2012-04-15T07:02:24Z</time>
      </trkpt>
      <trkpt lat="47.65247" lon="-2.09757">
        <ele>8.30859375</ele>
        <time>2012-04-15T07:02:37Z</time>
      </trkpt>
      <trkpt lat="47.65268" lon="-2.09817">
        <ele>7.34716796875</ele>
        <time>2012-04-15T07:02:41Z</time>
      </trkpt>
      <trkpt lat="47.65294" lon="-2.0992">
        <ele>7.34716796875</ele>
        <time>2012-04-15T07:03:04Z</time>
      </trkpt>
      <trkpt lat="47.65369" lon="-2.10058">
        <ele>4.94384765625</ele>
        <time>2012-04-15T07:03:24Z</time>
      </trkpt>
      <trkpt lat="47.65417" lon="-2.10096">
        <ele>5.424560546875</ele>
        <time>2012-04-15T07:03:39Z</time>
      </trkpt>
      <trkpt lat="47.65475" lon="-2.10185">
        <ele>3.501953125</ele>
        <time>2012-04-15T07:03:57Z</time>
      </trkpt>
      <trkpt lat="47.65515" lon="-2.10194">
        <ele>3.982666015625</ele>
        <time>2012-04-15T07:04:08Z</time>
      </trkpt>
      <trkpt lat="47.65528" lon="-2.10198">
        <ele>6.3858642578125</ele>
        <time>2012-04-15T07:04:17Z</time>
      </trkpt>
      <trkpt lat="47.65542" lon="-2.10134">
        <ele>6.866455078125</ele>
        <time>2012-04-15T07:04:21Z</time>
      </trkpt>
      <trkpt lat="47.65547" lon="-2.10128">
        <ele>5.424560546875</ele>
        <time>2012-04-15T07:04:37Z</time>
      </trkpt>
      <trkpt lat="47.65547" lon="-2.10128">
        <ele>5.424560546875</ele>
        <time>2012-04-15T07:04:41Z</time>
      </trkpt>
      <trkpt lat="47.65554" lon="-2.10128">
        <ele>6.3858642578125</ele>
        <time>2012-04-15T07:04:45Z</time>
      </trkpt>
      <trkpt lat="47.65596" lon="-2.1012">
        <ele>8.7891845703125</ele>
        <time>2012-04-15T07:04:58Z</time>
      </trkpt>
      <trkpt lat="47.65683" lon="-2.1009">
        <ele>6.866455078125</ele>
        <time>2012-04-15T07:05:19Z</time>
      </trkpt>
      <trkpt lat="47.65773" lon="-2.10061">
        <ele>5.424560546875</ele>
        <time>2012-04-15T07:05:43Z</time>
      </trkpt>
      <trkpt lat="47.65854" lon="-2.10039">
        <ele>2.5406494140625</ele>
        <time>2012-04-15T07:06:06Z</time>
      </trkpt>
      <trkpt lat="47.65937" lon="-2.10014">
        <ele>-0.3433837890625</ele>
        <time>2012-04-15T07:06:27Z</time>
      </trkpt>
      <trkpt lat="47.66021" lon="-2.09988">
        <ele>1.0986328125</ele>
        <time>2012-04-15T07:06:48Z</time>
      </trkpt>
      <trkpt lat="47.66119" lon="-2.09942">
        <ele>1.579345703125</ele>
        <time>2012-04-15T07:07:13Z</time>
      </trkpt>
      <trkpt lat="47.66198" lon="-2.09875">
        <ele>2.5406494140625</ele>
        <time>2012-04-15T07:07:38Z</time>
      </trkpt>
      <trkpt lat="47.66206" lon="-2.09868">
        <ele>3.021240234375</ele>
        <time>2012-04-15T07:07:42Z</time>
      </trkpt>
      <trkpt lat="47.66208" lon="-2.09867">
        <ele>2.5406494140625</ele>
        <time>2012-04-15T07:07:59Z</time>
      </trkpt>
      <trkpt lat="47.66225" lon="-2.09852">
        <ele>3.501953125</ele>
        <time>2012-04-15T07:08:14Z</time>
      </trkpt>
      <trkpt lat="47.66225" lon="-2.09852">
        <ele>3.021240234375</ele>
        <time>2012-04-15T07:08:15Z</time>
      </trkpt>
      <trkpt lat="47.66287" lon="-2.09838">
        <ele>3.021240234375</ele>
        <time>2012-04-15T07:08:26Z</time>
      </trkpt>
      <trkpt lat="47.66321" lon="-2.09827">
        <ele>3.982666015625</ele>
        <time>2012-04-15T07:08:40Z</time>
      </trkpt>
      <trkpt lat="47.66405" lon="-2.09778">
        <ele>6.866455078125</ele>
        <time>2012-04-15T07:09:05Z</time>
      </trkpt>
      <trkpt lat="47.66476" lon="-2.09705">
        <ele>7.34716796875</ele>
        <time>2012-04-15T07:09:29Z</time>
      </trkpt>
      <trkpt lat="47.66504" lon="-2.0965">
        <ele>8.7891845703125</ele>
        <time>2012-04-15T07:09:47Z</time>
      </trkpt>
      <trkpt lat="47.66528" lon="-2.09604">
        <ele>8.30859375</ele>
        <time>2012-04-15T07:09:59Z</time>
      </trkpt>
      <trkpt lat="47.66586" lon="-2.0949">
        <ele>7.34716796875</ele>
        <time>2012-04-15T07:10:21Z</time>
      </trkpt>
      <trkpt lat="47.66621" lon="-2.09421">
        <ele>7.34716796875</ele>
        <time>2012-04-15T07:10:34Z</time>
      </trkpt>
      <trkpt lat="47.66651" lon="-2.09335">
        <ele>4.4632568359375</ele>
        <time>2012-04-15T07:10:51Z</time>
      </trkpt>
      <trkpt lat="47.66716" lon="-2.092">
        <ele>4.94384765625</ele>
        <time>2012-04-15T07:11:16Z</time>
      </trkpt>
      <trkpt lat="47.66792" lon="-2.09041">
        <ele>4.4632568359375</ele>
        <time>2012-04-15T07:11:47Z</time>
      </trkpt>
      <trkpt lat="47.6688" lon="-2.08885">
        <ele>6.866455078125</ele>
        <time>2012-04-15T07:12:20Z</time>
      </trkpt>
      <trkpt lat="47.66897" lon="-2.08869">
        <ele>9.2698974609375</ele>
        <time>2012-04-15T07:12:31Z</time>
      </trkpt>
      <trkpt lat="47.66953" lon="-2.0883">
        <ele>9.7506103515625</ele>
        <time>2012-04-15T07:12:46Z</time>
      </trkpt>
      <trkpt lat="47.6702" lon="-2.0879">
        <ele>7.827880859375</ele>
        <time>2012-04-15T07:13:04Z</time>
      </trkpt>
      <trkpt lat="47.67111" lon="-2.08768">
        <ele>6.866455078125</ele>
        <time>2012-04-15T07:13:27Z</time>
      </trkpt>
      <trkpt lat="47.67191" lon="-2.08796">
        <ele>8.7891845703125</ele>
        <time>2012-04-15T07:13:45Z</time>
      </trkpt>
      <trkpt lat="47.67279" lon="-2.08864">
        <ele>10.711791992188</ele>
        <time>2012-04-15T07:14:09Z</time>
      </trkpt>
      <trkpt lat="47.67357" lon="-2.08954">
        <ele>10.711791992188</ele>
        <time>2012-04-15T07:14:32Z</time>
      </trkpt>
      <trkpt lat="47.6741" lon="-2.09018">
        <ele>10.711791992188</ele>
        <time>2012-04-15T07:14:49Z</time>
      </trkpt>
      <trkpt lat="47.67449" lon="-2.09064">
        <ele>9.7506103515625</ele>
        <time>2012-04-15T07:15:01Z</time>
      </trkpt>
      <trkpt lat="47.6749" lon="-2.09113">
        <ele>10.231201171875</ele>
        <time>2012-04-15T07:15:14Z</time>
      </trkpt>
      <trkpt lat="47.67524" lon="-2.09153">
        <ele>8.7891845703125</ele>
        <time>2012-04-15T07:15:26Z</time>
      </trkpt>
      <trkpt lat="47.67569" lon="-2.09191">
        <ele>9.7506103515625</ele>
        <time>2012-04-15T07:15:44Z</time>
      </trkpt>
      <trkpt lat="47.67569" lon="-2.09191">
        <ele>9.7506103515625</ele>
        <time>2012-04-15T07:15:46Z</time>
      </trkpt>
      <trkpt lat="47.67569" lon="-2.09191">
        <ele>9.2698974609375</ele>
        <time>2012-04-15T07:15:49Z</time>
      </trkpt>
      <trkpt lat="47.67612" lon="-2.09255">
        <ele>11.673217773438</ele>
        <time>2012-04-15T07:16:04Z</time>
      </trkpt>
      <trkpt lat="47.67612" lon="-2.09255">
        <ele>12.15380859375</ele>
        <time>2012-04-15T07:16:09Z</time>
      </trkpt>
      <trkpt lat="47.6762" lon="-2.09268">
        <ele>12.634399414062</ele>
        <time>2012-04-15T07:16:12Z</time>
      </trkpt>
      <trkpt lat="47.67624" lon="-2.09274">
        <ele>12.634399414062</ele>
        <time>2012-04-15T07:16:27Z</time>
      </trkpt>
      <trkpt lat="47.67624" lon="-2.09274">
        <ele>13.115112304688</ele>
        <time>2012-04-15T07:16:51Z</time>
      </trkpt>
      <trkpt lat="47.67615" lon="-2.09296">
        <ele>12.634399414062</ele>
        <time>2012-04-15T07:17:09Z</time>
      </trkpt>
      <trkpt lat="47.67618" lon="-2.09335">
        <ele>14.076416015625</ele>
        <time>2012-04-15T07:17:23Z</time>
      </trkpt>
      <trkpt lat="47.67618" lon="-2.09335">
        <ele>13.115112304688</ele>
        <time>2012-04-15T07:17:34Z</time>
      </trkpt>
      <trkpt lat="47.67619" lon="-2.0934">
        <ele>12.15380859375</ele>
        <time>2012-04-15T07:17:48Z</time>
      </trkpt>
      <trkpt lat="47.67619" lon="-2.0934">
        <ele>10.231201171875</ele>
        <time>2012-04-15T07:18:06Z</time>
      </trkpt>
      <trkpt lat="47.67619" lon="-2.0934">
        <ele>9.7506103515625</ele>
        <time>2012-04-15T07:18:38Z</time>
      </trkpt>
      <trkpt lat="47.67619" lon="-2.0934">
        <ele>10.711791992188</ele>
        <time>2012-04-15T07:23:24Z</time>
      </trkpt>
      <trkpt lat="47.67619" lon="-2.0934">
        <ele>9.2698974609375</ele>
        <time>2012-04-15T07:27:53Z</time>
      </trkpt>
      <trkpt lat="47.67615" lon="-2.09292">
        <ele>8.30859375</ele>
        <time>2012-04-15T07:28:08Z</time>
      </trkpt>
      <trkpt lat="47.67613" lon="-2.09271">
        <ele>8.7891845703125</ele>
        <time>2012-04-15T07:28:15Z</time>
      </trkpt>
      <trkpt lat="47.67622" lon="-2.09271">
        <ele>8.30859375</ele>
        <time>2012-04-15T07:28:19Z</time>
      </trkpt>
      <trkpt lat="47.67641" lon="-2.09296">
        <ele>6.3858642578125</ele>
        <time>2012-04-15T07:28:30Z</time>
      </trkpt>
      <trkpt lat="47.67642" lon="-2.09298">
        <ele>6.3858642578125</ele>
        <time>2012-04-15T07:28:31Z</time>
      </trkpt>
      <trkpt lat="47.67676" lon="-2.09346">
        <ele>6.3858642578125</ele>
        <time>2012-04-15T07:28:46Z</time>
      </trkpt>
      <trkpt lat="47.67714" lon="-2.09445">
        <ele>7.34716796875</ele>
        <time>2012-04-15T07:29:06Z</time>
      </trkpt>
      <trkpt lat="47.67746" lon="-2.09557">
        <ele>7.827880859375</ele>
        <time>2012-04-15T07:29:27Z</time>
      </trkpt>
      <trkpt lat="47.67788" lon="-2.09709">
        <ele>8.30859375</ele>
        <time>2012-04-15T07:29:54Z</time>
      </trkpt>
      <trkpt lat="47.67797" lon="-2.09741">
        <ele>8.30859375</ele>
        <time>2012-04-15T07:30:05Z</time>
      </trkpt>
      <trkpt lat="47.67797" lon="-2.09741">
        <ele>8.30859375</ele>
        <time>2012-04-15T07:30:35Z</time>
      </trkpt>
      <trkpt lat="47.67794" lon="-2.09732">
        <ele>8.30859375</ele>
        <time>2012-04-15T07:30:39Z</time>
      </trkpt>
      <trkpt lat="47.67774" lon="-2.0966">
        <ele>8.30859375</ele>
        <time>2012-04-15T07:30:56Z</time>
      </trkpt>
      <trkpt lat="47.67751" lon="-2.09575">
        <ele>7.827880859375</ele>
        <time>2012-04-15T07:31:13Z</time>
      </trkpt>
      <trkpt lat="47.67713" lon="-2.09438">
        <ele>6.866455078125</ele>
        <time>2012-04-15T07:31:39Z</time>
      </trkpt>
      <trkpt lat="47.67665" lon="-2.09325">
        <ele>8.7891845703125</ele>
        <time>2012-04-15T07:32:02Z</time>
      </trkpt>
      <trkpt lat="47.67636" lon="-2.0929">
        <ele>10.231201171875</ele>
        <time>2012-04-15T07:32:14Z</time>
      </trkpt>
      <trkpt lat="47.67625" lon="-2.09276">
        <ele>10.711791992188</ele>
        <time>2012-04-15T07:32:19Z</time>
      </trkpt>
      <trkpt lat="47.67624" lon="-2.09274">
        <ele>11.673217773438</ele>
        <time>2012-04-15T07:32:25Z</time>
      </trkpt>
      <trkpt lat="47.67622" lon="-2.0927">
        <ele>12.15380859375</ele>
        <time>2012-04-15T07:32:28Z</time>
      </trkpt>
      <trkpt lat="47.6762" lon="-2.09362">
        <ele>12.15380859375</ele>
        <time>2012-04-15T07:32:47Z</time>
      </trkpt>
      <trkpt lat="47.67648" lon="-2.09473">
        <ele>10.711791992188</ele>
        <time>2012-04-15T07:33:04Z</time>
      </trkpt>
      <trkpt lat="47.67698" lon="-2.09587">
        <ele>8.30859375</ele>
        <time>2012-04-15T07:33:22Z</time>
      </trkpt>
      <trkpt lat="47.6773" lon="-2.0967">
        <ele>8.7891845703125</ele>
        <time>2012-04-15T07:33:36Z</time>
      </trkpt>
      <trkpt lat="47.67736" lon="-2.09703">
        <ele>8.30859375</ele>
        <time>2012-04-15T07:33:44Z</time>
      </trkpt>
      <trkpt lat="47.67754" lon="-2.09698">
        <ele>8.30859375</ele>
        <time>2012-04-15T07:33:47Z</time>
      </trkpt>
      <trkpt lat="47.67777" lon="-2.09753">
        <ele>6.866455078125</ele>
        <time>2012-04-15T07:34:01Z</time>
      </trkpt>
      <trkpt lat="47.67792" lon="-2.09812">
        <ele>6.3858642578125</ele>
        <time>2012-04-15T07:34:13Z</time>
      </trkpt>
      <trkpt lat="47.67806" lon="-2.09865">
        <ele>6.3858642578125</ele>
        <time>2012-04-15T07:34:24Z</time>
      </trkpt>
      <trkpt lat="47.67829" lon="-2.09954">
        <ele>4.94384765625</ele>
        <time>2012-04-15T07:34:41Z</time>
      </trkpt>
      <trkpt lat="47.6783" lon="-2.09959">
        <ele>5.424560546875</ele>
        <time>2012-04-15T07:34:50Z</time>
      </trkpt>
      <trkpt lat="47.67849" lon="-2.1004">
        <ele>6.866455078125</ele>
        <time>2012-04-15T07:35:02Z</time>
      </trkpt>
      <trkpt lat="47.67862" lon="-2.10092">
        <ele>6.3858642578125</ele>
        <time>2012-04-15T07:35:14Z</time>
      </trkpt>
      <trkpt lat="47.67885" lon="-2.10171">
        <ele>5.9052734375</ele>
        <time>2012-04-15T07:35:29Z</time>
      </trkpt>
      <trkpt lat="47.6791" lon="-2.10259">
        <ele>3.021240234375</ele>
        <time>2012-04-15T07:35:45Z</time>
      </trkpt>
      <trkpt lat="47.67925" lon="-2.10314">
        <ele>3.982666015625</ele>
        <time>2012-04-15T07:35:56Z</time>
      </trkpt>
      <trkpt lat="47.67945" lon="-2.1039">
        <ele>4.94384765625</ele>
        <time>2012-04-15T07:36:09Z</time>
      </trkpt>
      <trkpt lat="47.67961" lon="-2.10447">
        <ele>5.9052734375</ele>
        <time>2012-04-15T07:36:19Z</time>
      </trkpt>
      <trkpt lat="47.67984" lon="-2.10528">
        <ele>6.3858642578125</ele>
        <time>2012-04-15T07:36:34Z</time>
      </trkpt>
      <trkpt lat="47.68005" lon="-2.106">
        <ele>5.9052734375</ele>
        <time>2012-04-15T07:36:47Z</time>
      </trkpt>
      <trkpt lat="47.68032" lon="-2.10697">
        <ele>6.866455078125</ele>
        <time>2012-04-15T07:37:05Z</time>
      </trkpt>
      <trkpt lat="47.6807" lon="-2.10829">
        <ele>6.3858642578125</ele>
        <time>2012-04-15T07:37:32Z</time>
      </trkpt>
      <trkpt lat="47.68109" lon="-2.10968">
        <ele>5.424560546875</ele>
        <time>2012-04-15T07:37:59Z</time>
      </trkpt>
      <trkpt lat="47.68149" lon="-2.11111">
        <ele>6.3858642578125</ele>
        <time>2012-04-15T07:38:28Z</time>
      </trkpt>
      <trkpt lat="47.68185" lon="-2.11239">
        <ele>6.866455078125</ele>
        <time>2012-04-15T07:38:53Z</time>
      </trkpt>
      <trkpt lat="47.68224" lon="-2.11382">
        <ele>7.34716796875</ele>
        <time>2012-04-15T07:39:20Z</time>
      </trkpt>
      <trkpt lat="47.68269" lon="-2.11538">
        <ele>7.827880859375</ele>
        <time>2012-04-15T07:39:50Z</time>
      </trkpt>
      <trkpt lat="47.68318" lon="-2.11709">
        <ele>8.7891845703125</ele>
        <time>2012-04-15T07:40:23Z</time>
      </trkpt>
      <trkpt lat="47.68346" lon="-2.11814">
        <ele>7.827880859375</ele>
        <time>2012-04-15T07:40:47Z</time>
      </trkpt>
      <trkpt lat="47.68349" lon="-2.11847">
        <ele>7.34716796875</ele>
        <time>2012-04-15T07:41:01Z</time>
      </trkpt>
      <trkpt lat="47.68351" lon="-2.11859">
        <ele>7.34716796875</ele>
        <time>2012-04-15T07:41:11Z</time>
      </trkpt>
      <trkpt lat="47.68351" lon="-2.1186">
        <ele>7.34716796875</ele>
        <time>2012-04-15T07:42:21Z</time>
      </trkpt>
      <trkpt lat="47.68366" lon="-2.11889">
        <ele>3.021240234375</ele>
        <time>2012-04-15T07:42:31Z</time>
      </trkpt>
      <trkpt lat="47.68395" lon="-2.12001">
        <ele>4.4632568359375</ele>
        <time>2012-04-15T07:42:51Z</time>
      </trkpt>
      <trkpt lat="47.68426" lon="-2.12113">
        <ele>4.4632568359375</ele>
        <time>2012-04-15T07:43:12Z</time>
      </trkpt>
      <trkpt lat="47.6844" lon="-2.12163">
        <ele>3.982666015625</ele>
        <time>2012-04-15T07:43:21Z</time>
      </trkpt>
      <trkpt lat="47.68457" lon="-2.1225">
        <ele>5.9052734375</ele>
        <time>2012-04-15T07:43:39Z</time>
      </trkpt>
      <trkpt lat="47.6846" lon="-2.12269">
        <ele>6.866455078125</ele>
        <time>2012-04-15T07:43:51Z</time>
      </trkpt>
      <trkpt lat="47.6846" lon="-2.12269">
        <ele>6.866455078125</ele>
        <time>2012-04-15T07:44:22Z</time>
      </trkpt>
      <trkpt lat="47.68459" lon="-2.12262">
        <ele>7.827880859375</ele>
        <time>2012-04-15T07:44:43Z</time>
      </trkpt>
      <trkpt lat="47.68459" lon="-2.12262">
        <ele>7.827880859375</ele>
        <time>2012-04-15T07:44:49Z</time>
      </trkpt>
      <trkpt lat="47.68459" lon="-2.12262">
        <ele>8.30859375</ele>
        <time>2012-04-15T07:45:03Z</time>
      </trkpt>
      <trkpt lat="47.68459" lon="-2.12262">
        <ele>8.7891845703125</ele>
        <time>2012-04-15T07:49:46Z</time>
      </trkpt>
      <trkpt lat="47.68474" lon="-2.12292">
        <ele>8.7891845703125</ele>
        <time>2012-04-15T07:50:00Z</time>
      </trkpt>
      <trkpt lat="47.68482" lon="-2.12302">
        <ele>8.30859375</ele>
        <time>2012-04-15T07:50:05Z</time>
      </trkpt>
      <trkpt lat="47.68493" lon="-2.12315">
        <ele>6.866455078125</ele>
        <time>2012-04-15T07:50:10Z</time>
      </trkpt>
      <trkpt lat="47.68517" lon="-2.1232">
        <ele>6.866455078125</ele>
        <time>2012-04-15T07:50:17Z</time>
      </trkpt>
      <trkpt lat="47.68594" lon="-2.12275">
        <ele>6.866455078125</ele>
        <time>2012-04-15T07:50:40Z</time>
      </trkpt>
      <trkpt lat="47.68689" lon="-2.12207">
        <ele>7.34716796875</ele>
        <time>2012-04-15T07:51:08Z</time>
      </trkpt>
      <trkpt lat="47.68773" lon="-2.12184">
        <ele>6.866455078125</ele>
        <time>2012-04-15T07:51:30Z</time>
      </trkpt>
      <trkpt lat="47.68848" lon="-2.12219">
        <ele>6.866455078125</ele>
        <time>2012-04-15T07:51:52Z</time>
      </trkpt>
      <trkpt lat="47.68895" lon="-2.12296">
        <ele>7.34716796875</ele>
        <time>2012-04-15T07:52:10Z</time>
      </trkpt>
      <trkpt lat="47.68975" lon="-2.12449">
        <ele>7.34716796875</ele>
        <time>2012-04-15T07:52:42Z</time>
      </trkpt>
      <trkpt lat="47.69044" lon="-2.12505">
        <ele>6.866455078125</ele>
        <time>2012-04-15T07:53:02Z</time>
      </trkpt>
      <trkpt lat="47.69121" lon="-2.1254">
        <ele>5.424560546875</ele>
        <time>2012-04-15T07:53:23Z</time>
      </trkpt>
      <trkpt lat="47.69181" lon="-2.12521">
        <ele>4.94384765625</ele>
        <time>2012-04-15T07:53:38Z</time>
      </trkpt>
      <trkpt lat="47.69288" lon="-2.12441">
        <ele>4.94384765625</ele>
        <time>2012-04-15T07:54:08Z</time>
      </trkpt>
      <trkpt lat="47.69345" lon="-2.12414">
        <ele>5.9052734375</ele>
        <time>2012-04-15T07:54:35Z</time>
      </trkpt>
      <trkpt lat="47.69473" lon="-2.12354">
        <ele>5.9052734375</ele>
        <time>2012-04-15T07:54:58Z</time>
      </trkpt>
      <trkpt lat="47.69557" lon="-2.12332">
        <ele>5.9052734375</ele>
        <time>2012-04-15T07:55:21Z</time>
      </trkpt>
      <trkpt lat="47.69645" lon="-2.12329">
        <ele>5.9052734375</ele>
        <time>2012-04-15T07:55:45Z</time>
      </trkpt>
      <trkpt lat="47.69765" lon="-2.12324">
        <ele>6.3858642578125</ele>
        <time>2012-04-15T07:56:18Z</time>
      </trkpt>
      <trkpt lat="47.69828" lon="-2.12309">
        <ele>6.3858642578125</ele>
        <time>2012-04-15T07:56:37Z</time>
      </trkpt>
      <trkpt lat="47.69892" lon="-2.12293">
        <ele>8.30859375</ele>
        <time>2012-04-15T07:56:57Z</time>
      </trkpt>
      <trkpt lat="47.6994" lon="-2.12277">
        <ele>7.827880859375</ele>
        <time>2012-04-15T07:57:12Z</time>
      </trkpt>
      <trkpt lat="47.69994" lon="-2.12256">
        <ele>8.7891845703125</ele>
        <time>2012-04-15T07:57:29Z</time>
      </trkpt>
      <trkpt lat="47.70098" lon="-2.12258">
        <ele>6.866455078125</ele>
        <time>2012-04-15T07:58:00Z</time>
      </trkpt>
      <trkpt lat="47.7016" lon="-2.12259">
        <ele>5.424560546875</ele>
        <time>2012-04-15T07:58:20Z</time>
      </trkpt>
      <trkpt lat="47.702" lon="-2.12249">
        <ele>6.866455078125</ele>
        <time>2012-04-15T07:58:36Z</time>
      </trkpt>
      <trkpt lat="47.70256" lon="-2.12219">
        <ele>7.827880859375</ele>
        <time>2012-04-15T07:58:54Z</time>
      </trkpt>
      <trkpt lat="47.70328" lon="-2.1216">
        <ele>10.231201171875</ele>
        <time>2012-04-15T07:59:18Z</time>
      </trkpt>
      <trkpt lat="47.70399" lon="-2.1211">
        <ele>11.673217773438</ele>
        <time>2012-04-15T07:59:40Z</time>
      </trkpt>
      <trkpt lat="47.70467" lon="-2.12079">
        <ele>11.673217773438</ele>
        <time>2012-04-15T08:00:01Z</time>
      </trkpt>
      <trkpt lat="47.70537" lon="-2.12045">
        <ele>10.711791992188</ele>
        <time>2012-04-15T08:00:20Z</time>
      </trkpt>
      <trkpt lat="47.70603" lon="-2.12013">
        <ele>10.231201171875</ele>
        <time>2012-04-15T08:00:40Z</time>
      </trkpt>
      <trkpt lat="47.70648" lon="-2.11991">
        <ele>11.192504882812</ele>
        <time>2012-04-15T08:00:55Z</time>
      </trkpt>
      <trkpt lat="47.70712" lon="-2.11966">
        <ele>9.2698974609375</ele>
        <time>2012-04-15T08:01:15Z</time>
      </trkpt>
      <trkpt lat="47.70793" lon="-2.11939">
        <ele>8.7891845703125</ele>
        <time>2012-04-15T08:01:40Z</time>
      </trkpt>
      <trkpt lat="47.70869" lon="-2.1193">
        <ele>6.3858642578125</ele>
        <time>2012-04-15T08:02:02Z</time>
      </trkpt>
      <trkpt lat="47.70936" lon="-2.11944">
        <ele>6.866455078125</ele>
        <time>2012-04-15T08:02:21Z</time>
      </trkpt>
      <trkpt lat="47.7098" lon="-2.11959">
        <ele>10.231201171875</ele>
        <time>2012-04-15T08:02:34Z</time>
      </trkpt>
      <trkpt lat="47.71034" lon="-2.12005">
        <ele>9.2698974609375</ele>
        <time>2012-04-15T08:02:52Z</time>
      </trkpt>
      <trkpt lat="47.71055" lon="-2.12051">
        <ele>10.711791992188</ele>
        <time>2012-04-15T08:03:03Z</time>
      </trkpt>
      <trkpt lat="47.71085" lon="-2.12094">
        <ele>11.673217773438</ele>
        <time>2012-04-15T08:03:15Z</time>
      </trkpt>
      <trkpt lat="47.7111" lon="-2.1213">
        <ele>12.15380859375</ele>
        <time>2012-04-15T08:03:25Z</time>
      </trkpt>
      <trkpt lat="47.71159" lon="-2.12204">
        <ele>11.673217773438</ele>
        <time>2012-04-15T08:03:45Z</time>
      </trkpt>
      <trkpt lat="47.7121" lon="-2.12282">
        <ele>13.115112304688</ele>
        <time>2012-04-15T08:04:07Z</time>
      </trkpt>
      <trkpt lat="47.71256" lon="-2.12354">
        <ele>10.711791992188</ele>
        <time>2012-04-15T08:04:27Z</time>
      </trkpt>
      <trkpt lat="47.71295" lon="-2.12398">
        <ele>8.30859375</ele>
        <time>2012-04-15T08:04:42Z</time>
      </trkpt>
      <trkpt lat="47.71298" lon="-2.12401">
        <ele>6.866455078125</ele>
        <time>2012-04-15T08:04:46Z</time>
      </trkpt>
      <trkpt lat="47.71332" lon="-2.12469">
        <ele>6.3858642578125</ele>
        <time>2012-04-15T08:05:06Z</time>
      </trkpt>
      <trkpt lat="47.71356" lon="-2.12533">
        <ele>6.866455078125</ele>
        <time>2012-04-15T08:05:23Z</time>
      </trkpt>
      <trkpt lat="47.7137" lon="-2.12621">
        <ele>7.827880859375</ele>
        <time>2012-04-15T08:05:43Z</time>
      </trkpt>
      <trkpt lat="47.71386" lon="-2.12729">
        <ele>7.34716796875</ele>
        <time>2012-04-15T08:06:04Z</time>
      </trkpt>
      <trkpt lat="47.71398" lon="-2.12811">
        <ele>6.866455078125</ele>
        <time>2012-04-15T08:06:20Z</time>
      </trkpt>
      <trkpt lat="47.71412" lon="-2.12906">
        <ele>9.2698974609375</ele>
        <time>2012-04-15T08:06:38Z</time>
      </trkpt>
      <trkpt lat="47.71425" lon="-2.12992">
        <ele>10.711791992188</ele>
        <time>2012-04-15T08:06:55Z</time>
      </trkpt>
      <trkpt lat="47.7144" lon="-2.13093">
        <ele>11.192504882812</ele>
        <time>2012-04-15T08:07:14Z</time>
      </trkpt>
      <trkpt lat="47.71456" lon="-2.13204">
        <ele>10.231201171875</ele>
        <time>2012-04-15T08:07:34Z</time>
      </trkpt>
      <trkpt lat="47.71473" lon="-2.13321">
        <ele>10.231201171875</ele>
        <time>2012-04-15T08:07:55Z</time>
      </trkpt>
      <trkpt lat="47.71485" lon="-2.13398">
        <ele>9.7506103515625</ele>
        <time>2012-04-15T08:08:12Z</time>
      </trkpt>
      <trkpt lat="47.71503" lon="-2.13522">
        <ele>8.7891845703125</ele>
        <time>2012-04-15T08:08:37Z</time>
      </trkpt>
      <trkpt lat="47.71513" lon="-2.13591">
        <ele>8.30859375</ele>
        <time>2012-04-15T08:08:52Z</time>
      </trkpt>
      <trkpt lat="47.7153" lon="-2.13708">
        <ele>6.3858642578125</ele>
        <time>2012-04-15T08:09:15Z</time>
      </trkpt>
      <trkpt lat="47.7155" lon="-2.1384">
        <ele>7.34716796875</ele>
        <time>2012-04-15T08:09:40Z</time>
      </trkpt>
      <trkpt lat="47.7157" lon="-2.13977">
        <ele>6.3858642578125</ele>
        <time>2012-04-15T08:10:05Z</time>
      </trkpt>
      <trkpt lat="47.71589" lon="-2.14108">
        <ele>8.30859375</ele>
        <time>2012-04-15T08:10:29Z</time>
      </trkpt>
      <trkpt lat="47.71606" lon="-2.14223">
        <ele>8.30859375</ele>
        <time>2012-04-15T08:10:51Z</time>
      </trkpt>
      <trkpt lat="47.71625" lon="-2.14352">
        <ele>11.192504882812</ele>
        <time>2012-04-15T08:11:15Z</time>
      </trkpt>
      <trkpt lat="47.71644" lon="-2.14476">
        <ele>12.634399414062</ele>
        <time>2012-04-15T08:11:37Z</time>
      </trkpt>
      <trkpt lat="47.71662" lon="-2.14597">
        <ele>11.192504882812</ele>
        <time>2012-04-15T08:11:58Z</time>
      </trkpt>
      <trkpt lat="47.71679" lon="-2.14713">
        <ele>11.192504882812</ele>
        <time>2012-04-15T08:12:19Z</time>
      </trkpt>
      <trkpt lat="47.7169" lon="-2.14793">
        <ele>12.15380859375</ele>
        <time>2012-04-15T08:12:35Z</time>
      </trkpt>
      <trkpt lat="47.71693" lon="-2.14807">
        <ele>12.634399414062</ele>
        <time>2012-04-15T08:12:41Z</time>
      </trkpt>
      <trkpt lat="47.71693" lon="-2.14811">
        <ele>12.15380859375</ele>
        <time>2012-04-15T08:12:43Z</time>
      </trkpt>
      <trkpt lat="47.71695" lon="-2.14825">
        <ele>12.634399414062</ele>
        <time>2012-04-15T08:12:49Z</time>
      </trkpt>
      <trkpt lat="47.71705" lon="-2.14886">
        <ele>10.711791992188</ele>
        <time>2012-04-15T08:13:02Z</time>
      </trkpt>
      <trkpt lat="47.71719" lon="-2.14977">
        <ele>7.827880859375</ele>
        <time>2012-04-15T08:13:21Z</time>
      </trkpt>
      <trkpt lat="47.71735" lon="-2.15077">
        <ele>9.7506103515625</ele>
        <time>2012-04-15T08:13:42Z</time>
      </trkpt>
      <trkpt lat="47.71743" lon="-2.15131">
        <ele>10.711791992188</ele>
        <time>2012-04-15T08:13:53Z</time>
      </trkpt>
      <trkpt lat="47.71756" lon="-2.15217">
        <ele>11.673217773438</ele>
        <time>2012-04-15T08:14:11Z</time>
      </trkpt>
      <trkpt lat="47.71768" lon="-2.15293">
        <ele>10.711791992188</ele>
        <time>2012-04-15T08:14:26Z</time>
      </trkpt>
      <trkpt lat="47.71781" lon="-2.15374">
        <ele>8.7891845703125</ele>
        <time>2012-04-15T08:14:43Z</time>
      </trkpt>
      <trkpt lat="47.71786" lon="-2.15409">
        <ele>4.4632568359375</ele>
        <time>2012-04-15T08:14:50Z</time>
      </trkpt>
      <trkpt lat="47.71799" lon="-2.15492">
        <ele>7.34716796875</ele>
        <time>2012-04-15T08:15:05Z</time>
      </trkpt>
      <trkpt lat="47.71812" lon="-2.15574">
        <ele>8.30859375</ele>
        <time>2012-04-15T08:15:20Z</time>
      </trkpt>
      <trkpt lat="47.7182" lon="-2.15621">
        <ele>7.827880859375</ele>
        <time>2012-04-15T08:15:28Z</time>
      </trkpt>
      <trkpt lat="47.7183" lon="-2.15691">
        <ele>13.115112304688</ele>
        <time>2012-04-15T08:15:39Z</time>
      </trkpt>
      <trkpt lat="47.71838" lon="-2.15741">
        <ele>15.9990234375</ele>
        <time>2012-04-15T08:15:47Z</time>
      </trkpt>
      <trkpt lat="47.71848" lon="-2.15806">
        <ele>14.557006835938</ele>
        <time>2012-04-15T08:15:58Z</time>
      </trkpt>
      <trkpt lat="47.71859" lon="-2.15876">
        <ele>16.479736328125</ele>
        <time>2012-04-15T08:16:10Z</time>
      </trkpt>
      <trkpt lat="47.71872" lon="-2.1596">
        <ele>22.24755859375</ele>
        <time>2012-04-15T08:16:25Z</time>
      </trkpt>
      <trkpt lat="47.71885" lon="-2.16043">
        <ele>18.40234375</ele>
        <time>2012-04-15T08:16:40Z</time>
      </trkpt>
      <trkpt lat="47.71892" lon="-2.16085">
        <ele>18.40234375</ele>
        <time>2012-04-15T08:16:48Z</time>
      </trkpt>
      <trkpt lat="47.71899" lon="-2.16133">
        <ele>13.595825195312</ele>
        <time>2012-04-15T08:16:56Z</time>
      </trkpt>
      <trkpt lat="47.71914" lon="-2.16226">
        <ele>11.673217773438</ele>
        <time>2012-04-15T08:17:13Z</time>
      </trkpt>
      <trkpt lat="47.71924" lon="-2.16292">
        <ele>10.231201171875</ele>
        <time>2012-04-15T08:17:24Z</time>
      </trkpt>
      <trkpt lat="47.71928" lon="-2.16317">
        <ele>9.7506103515625</ele>
        <time>2012-04-15T08:17:28Z</time>
      </trkpt>
      <trkpt lat="47.71937" lon="-2.16376">
        <ele>9.2698974609375</ele>
        <time>2012-04-15T08:17:38Z</time>
      </trkpt>
      <trkpt lat="47.71952" lon="-2.16473">
        <ele>6.866455078125</ele>
        <time>2012-04-15T08:17:56Z</time>
      </trkpt>
      <trkpt lat="47.71963" lon="-2.16539">
        <ele>9.2698974609375</ele>
        <time>2012-04-15T08:18:08Z</time>
      </trkpt>
      <trkpt lat="47.71972" lon="-2.166">
        <ele>11.192504882812</ele>
        <time>2012-04-15T08:18:19Z</time>
      </trkpt>
      <trkpt lat="47.71982" lon="-2.16663">
        <ele>11.673217773438</ele>
        <time>2012-04-15T08:18:31Z</time>
      </trkpt>
      <trkpt lat="47.71997" lon="-2.16759">
        <ele>9.7506103515625</ele>
        <time>2012-04-15T08:18:49Z</time>
      </trkpt>
      <trkpt lat="47.72009" lon="-2.16833">
        <ele>9.7506103515625</ele>
        <time>2012-04-15T08:19:03Z</time>
      </trkpt>
      <trkpt lat="47.72021" lon="-2.16916">
        <ele>10.711791992188</ele>
        <time>2012-04-15T08:19:18Z</time>
      </trkpt>
      <trkpt lat="47.72025" lon="-2.16939">
        <ele>11.192504882812</ele>
        <time>2012-04-15T08:19:24Z</time>
      </trkpt>
      <trkpt lat="47.72029" lon="-2.16965">
        <ele>11.192504882812</ele>
        <time>2012-04-15T08:19:33Z</time>
      </trkpt>
      <trkpt lat="47.72031" lon="-2.16978">
        <ele>12.15380859375</ele>
        <time>2012-04-15T08:19:37Z</time>
      </trkpt>
      <trkpt lat="47.72037" lon="-2.17025">
        <ele>9.7506103515625</ele>
        <time>2012-04-15T08:19:46Z</time>
      </trkpt>
      <trkpt lat="47.72042" lon="-2.17059">
        <ele>10.231201171875</ele>
        <time>2012-04-15T08:19:52Z</time>
      </trkpt>
      <trkpt lat="47.72047" lon="-2.17102">
        <ele>10.711791992188</ele>
        <time>2012-04-15T08:20:00Z</time>
      </trkpt>
      <trkpt lat="47.72056" lon="-2.17165">
        <ele>9.7506103515625</ele>
        <time>2012-04-15T08:20:12Z</time>
      </trkpt>
      <trkpt lat="47.72066" lon="-2.17239">
        <ele>8.7891845703125</ele>
        <time>2012-04-15T08:20:26Z</time>
      </trkpt>
      <trkpt lat="47.72076" lon="-2.17314">
        <ele>9.7506103515625</ele>
        <time>2012-04-15T08:20:40Z</time>
      </trkpt>
      <trkpt lat="47.72077" lon="-2.17325">
        <ele>10.231201171875</ele>
        <time>2012-04-15T08:20:42Z</time>
      </trkpt>
      <trkpt lat="47.7208" lon="-2.17342">
        <ele>10.711791992188</ele>
        <time>2012-04-15T08:20:45Z</time>
      </trkpt>
      <trkpt lat="47.72085" lon="-2.17382">
        <ele>11.192504882812</ele>
        <time>2012-04-15T08:20:52Z</time>
      </trkpt>
      <trkpt lat="47.72097" lon="-2.17462">
        <ele>11.192504882812</ele>
        <time>2012-04-15T08:21:06Z</time>
      </trkpt>
      <trkpt lat="47.72105" lon="-2.17516">
        <ele>10.231201171875</ele>
        <time>2012-04-15T08:21:16Z</time>
      </trkpt>
      <trkpt lat="47.72118" lon="-2.17599">
        <ele>11.673217773438</ele>
        <time>2012-04-15T08:21:31Z</time>
      </trkpt>
      <trkpt lat="47.72123" lon="-2.17629">
        <ele>10.711791992188</ele>
        <time>2012-04-15T08:21:37Z</time>
      </trkpt>
      <trkpt lat="47.72139" lon="-2.17735">
        <ele>15.518432617188</ele>
        <time>2012-04-15T08:21:55Z</time>
      </trkpt>
      <trkpt lat="47.72153" lon="-2.17828">
        <ele>13.115112304688</ele>
        <time>2012-04-15T08:22:11Z</time>
      </trkpt>
      <trkpt lat="47.72171" lon="-2.17945">
        <ele>11.673217773438</ele>
        <time>2012-04-15T08:22:32Z</time>
      </trkpt>
      <trkpt lat="47.72186" lon="-2.18041">
        <ele>11.673217773438</ele>
        <time>2012-04-15T08:22:50Z</time>
      </trkpt>
      <trkpt lat="47.722" lon="-2.18131">
        <ele>10.711791992188</ele>
        <time>2012-04-15T08:23:06Z</time>
      </trkpt>
      <trkpt lat="47.72209" lon="-2.18193">
        <ele>10.711791992188</ele>
        <time>2012-04-15T08:23:18Z</time>
      </trkpt>
      <trkpt lat="47.72225" lon="-2.18299">
        <ele>10.231201171875</ele>
        <time>2012-04-15T08:23:36Z</time>
      </trkpt>
      <trkpt lat="47.72238" lon="-2.18384">
        <ele>11.192504882812</ele>
        <time>2012-04-15T08:23:52Z</time>
      </trkpt>
      <trkpt lat="47.72246" lon="-2.18433">
        <ele>8.7891845703125</ele>
        <time>2012-04-15T08:24:04Z</time>
      </trkpt>
      <trkpt lat="47.72255" lon="-2.18494">
        <ele>5.9052734375</ele>
        <time>2012-04-15T08:24:16Z</time>
      </trkpt>
      <trkpt lat="47.72272" lon="-2.18602">
        <ele>6.3858642578125</ele>
        <time>2012-04-15T08:24:36Z</time>
      </trkpt>
      <trkpt lat="47.72291" lon="-2.18739">
        <ele>6.866455078125</ele>
        <time>2012-04-15T08:25:01Z</time>
      </trkpt>
      <trkpt lat="47.72306" lon="-2.18865">
        <ele>4.94384765625</ele>
        <time>2012-04-15T08:25:25Z</time>
      </trkpt>
      <trkpt lat="47.72306" lon="-2.19026">
        <ele>4.94384765625</ele>
        <time>2012-04-15T08:25:54Z</time>
      </trkpt>
      <trkpt lat="47.72312" lon="-2.19184">
        <ele>3.982666015625</ele>
        <time>2012-04-15T08:26:20Z</time>
      </trkpt>
      <trkpt lat="47.72312" lon="-2.19191">
        <ele>4.4632568359375</ele>
        <time>2012-04-15T08:26:21Z</time>
      </trkpt>
      <trkpt lat="47.72317" lon="-2.19328">
        <ele>5.9052734375</ele>
        <time>2012-04-15T08:26:43Z</time>
      </trkpt>
      <trkpt lat="47.72314" lon="-2.19449">
        <ele>5.9052734375</ele>
        <time>2012-04-15T08:27:05Z</time>
      </trkpt>
      <trkpt lat="47.72311" lon="-2.19546">
        <ele>5.424560546875</ele>
        <time>2012-04-15T08:27:23Z</time>
      </trkpt>
      <trkpt lat="47.72318" lon="-2.19599">
        <ele>4.94384765625</ele>
        <time>2012-04-15T08:27:33Z</time>
      </trkpt>
      <trkpt lat="47.72342" lon="-2.19715">
        <ele>5.9052734375</ele>
        <time>2012-04-15T08:27:53Z</time>
      </trkpt>
      <trkpt lat="47.72364" lon="-2.19857">
        <ele>5.424560546875</ele>
        <time>2012-04-15T08:28:18Z</time>
      </trkpt>
      <trkpt lat="47.72377" lon="-2.20004">
        <ele>6.3858642578125</ele>
        <time>2012-04-15T08:28:43Z</time>
      </trkpt>
      <trkpt lat="47.72406" lon="-2.20129">
        <ele>5.424560546875</ele>
        <time>2012-04-15T08:29:03Z</time>
      </trkpt>
      <trkpt lat="47.72414" lon="-2.20221">
        <ele>3.501953125</ele>
        <time>2012-04-15T08:29:20Z</time>
      </trkpt>
      <trkpt lat="47.72412" lon="-2.20325">
        <ele>3.021240234375</ele>
        <time>2012-04-15T08:29:40Z</time>
      </trkpt>
      <trkpt lat="47.72399" lon="-2.2044">
        <ele>4.4632568359375</ele>
        <time>2012-04-15T08:30:03Z</time>
      </trkpt>
      <trkpt lat="47.72398" lon="-2.20564">
        <ele>7.34716796875</ele>
        <time>2012-04-15T08:30:24Z</time>
      </trkpt>
      <trkpt lat="47.7241" lon="-2.2068">
        <ele>9.2698974609375</ele>
        <time>2012-04-15T08:30:43Z</time>
      </trkpt>
      <trkpt lat="47.72435" lon="-2.2079">
        <ele>6.866455078125</ele>
        <time>2012-04-15T08:31:02Z</time>
      </trkpt>
      <trkpt lat="47.72435" lon="-2.20879">
        <ele>7.827880859375</ele>
        <time>2012-04-15T08:31:21Z</time>
      </trkpt>
      <trkpt lat="47.7242" lon="-2.20959">
        <ele>6.866455078125</ele>
        <time>2012-04-15T08:31:38Z</time>
      </trkpt>
      <trkpt lat="47.7243" lon="-2.2107">
        <ele>9.2698974609375</ele>
        <time>2012-04-15T08:31:56Z</time>
      </trkpt>
      <trkpt lat="47.72437" lon="-2.21124">
        <ele>9.7506103515625</ele>
        <time>2012-04-15T08:32:09Z</time>
      </trkpt>
      <trkpt lat="47.72439" lon="-2.21144">
        <ele>9.7506103515625</ele>
        <time>2012-04-15T08:32:14Z</time>
      </trkpt>
      <trkpt lat="47.72452" lon="-2.21227">
        <ele>10.711791992188</ele>
        <time>2012-04-15T08:32:31Z</time>
      </trkpt>
      <trkpt lat="47.72488" lon="-2.21279">
        <ele>12.15380859375</ele>
        <time>2012-04-15T08:32:45Z</time>
      </trkpt>
      <trkpt lat="47.72525" lon="-2.21311">
        <ele>9.2698974609375</ele>
        <time>2012-04-15T08:32:58Z</time>
      </trkpt>
      <trkpt lat="47.7256" lon="-2.21298">
        <ele>7.827880859375</ele>
        <time>2012-04-15T08:33:11Z</time>
      </trkpt>
      <trkpt lat="47.72597" lon="-2.2129">
        <ele>6.866455078125</ele>
        <time>2012-04-15T08:33:24Z</time>
      </trkpt>
      <trkpt lat="47.72643" lon="-2.21288">
        <ele>6.3858642578125</ele>
        <time>2012-04-15T08:33:39Z</time>
      </trkpt>
      <trkpt lat="47.727" lon="-2.21313">
        <ele>6.3858642578125</ele>
        <time>2012-04-15T08:33:56Z</time>
      </trkpt>
      <trkpt lat="47.72771" lon="-2.21361">
        <ele>6.3858642578125</ele>
        <time>2012-04-15T08:34:18Z</time>
      </trkpt>
      <trkpt lat="47.72812" lon="-2.21396">
        <ele>8.30859375</ele>
        <time>2012-04-15T08:34:31Z</time>
      </trkpt>
      <trkpt lat="47.72863" lon="-2.21439">
        <ele>8.30859375</ele>
        <time>2012-04-15T08:34:47Z</time>
      </trkpt>
      <trkpt lat="47.72897" lon="-2.21472">
        <ele>7.827880859375</ele>
        <time>2012-04-15T08:35:00Z</time>
      </trkpt>
      <trkpt lat="47.72932" lon="-2.21537">
        <ele>7.827880859375</ele>
        <time>2012-04-15T08:35:17Z</time>
      </trkpt>
      <trkpt lat="47.72967" lon="-2.21637">
        <ele>4.4632568359375</ele>
        <time>2012-04-15T08:35:38Z</time>
      </trkpt>
      <trkpt lat="47.72992" lon="-2.21741">
        <ele>3.021240234375</ele>
        <time>2012-04-15T08:35:58Z</time>
      </trkpt>
      <trkpt lat="47.7302" lon="-2.21881">
        <ele>3.501953125</ele>
        <time>2012-04-15T08:36:24Z</time>
      </trkpt>
      <trkpt lat="47.73043" lon="-2.2201">
        <ele>3.982666015625</ele>
        <time>2012-04-15T08:36:48Z</time>
      </trkpt>
      <trkpt lat="47.73082" lon="-2.22104">
        <ele>5.424560546875</ele>
        <time>2012-04-15T08:37:07Z</time>
      </trkpt>
      <trkpt lat="47.73157" lon="-2.22217">
        <ele>5.9052734375</ele>
        <time>2012-04-15T08:37:35Z</time>
      </trkpt>
      <trkpt lat="47.7323" lon="-2.22268">
        <ele>7.34716796875</ele>
        <time>2012-04-15T08:37:57Z</time>
      </trkpt>
      <trkpt lat="47.73285" lon="-2.22306">
        <ele>8.30859375</ele>
        <time>2012-04-15T08:38:15Z</time>
      </trkpt>
      <trkpt lat="47.73321" lon="-2.2236">
        <ele>9.2698974609375</ele>
        <time>2012-04-15T08:38:30Z</time>
      </trkpt>
      <trkpt lat="47.7337" lon="-2.22419">
        <ele>9.7506103515625</ele>
        <time>2012-04-15T08:38:48Z</time>
      </trkpt>
      <trkpt lat="47.73425" lon="-2.22477">
        <ele>8.7891845703125</ele>
        <time>2012-04-15T08:39:07Z</time>
      </trkpt>
      <trkpt lat="47.73511" lon="-2.22559">
        <ele>8.7891845703125</ele>
        <time>2012-04-15T08:39:35Z</time>
      </trkpt>
      <trkpt lat="47.73602" lon="-2.22636">
        <ele>8.7891845703125</ele>
        <time>2012-04-15T08:40:02Z</time>
      </trkpt>
      <trkpt lat="47.73643" lon="-2.22699">
        <ele>9.7506103515625</ele>
        <time>2012-04-15T08:40:18Z</time>
      </trkpt>
      <trkpt lat="47.73694" lon="-2.22758">
        <ele>10.231201171875</ele>
        <time>2012-04-15T08:40:36Z</time>
      </trkpt>
      <trkpt lat="47.73732" lon="-2.22826">
        <ele>10.711791992188</ele>
        <time>2012-04-15T08:40:52Z</time>
      </trkpt>
      <trkpt lat="47.7376" lon="-2.22895">
        <ele>8.7891845703125</ele>
        <time>2012-04-15T08:41:06Z</time>
      </trkpt>
      <trkpt lat="47.73801" lon="-2.22932">
        <ele>9.7506103515625</ele>
        <time>2012-04-15T08:41:18Z</time>
      </trkpt>
      <trkpt lat="47.73856" lon="-2.23002">
        <ele>12.634399414062</ele>
        <time>2012-04-15T08:41:37Z</time>
      </trkpt>
      <trkpt lat="47.73913" lon="-2.23065">
        <ele>13.595825195312</ele>
        <time>2012-04-15T08:41:55Z</time>
      </trkpt>
      <trkpt lat="47.73963" lon="-2.23132">
        <ele>15.037719726562</ele>
        <time>2012-04-15T08:42:12Z</time>
      </trkpt>
      <trkpt lat="47.73982" lon="-2.23162">
        <ele>13.595825195312</ele>
        <time>2012-04-15T08:42:19Z</time>
      </trkpt>
      <trkpt lat="47.74003" lon="-2.23215">
        <ele>10.231201171875</ele>
        <time>2012-04-15T08:42:29Z</time>
      </trkpt>
      <trkpt lat="47.74035" lon="-2.23334">
        <ele>8.7891845703125</ele>
        <time>2012-04-15T08:42:51Z</time>
      </trkpt>
      <trkpt lat="47.74077" lon="-2.2342">
        <ele>10.231201171875</ele>
        <time>2012-04-15T08:43:09Z</time>
      </trkpt>
      <trkpt lat="47.7411" lon="-2.23533">
        <ele>8.30859375</ele>
        <time>2012-04-15T08:43:31Z</time>
      </trkpt>
      <trkpt lat="47.74123" lon="-2.23661">
        <ele>5.9052734375</ele>
        <time>2012-04-15T08:43:53Z</time>
      </trkpt>
      <trkpt lat="47.74123" lon="-2.23862">
        <ele>4.94384765625</ele>
        <time>2012-04-15T08:44:26Z</time>
      </trkpt>
      <trkpt lat="47.74093" lon="-2.23976">
        <ele>2.5406494140625</ele>
        <time>2012-04-15T08:44:47Z</time>
      </trkpt>
      <trkpt lat="47.74038" lon="-2.2407">
        <ele>2.5406494140625</ele>
        <time>2012-04-15T08:45:07Z</time>
      </trkpt>
      <trkpt lat="47.73953" lon="-2.24174">
        <ele>4.4632568359375</ele>
        <time>2012-04-15T08:45:33Z</time>
      </trkpt>
      <trkpt lat="47.73889" lon="-2.24258">
        <ele>5.424560546875</ele>
        <time>2012-04-15T08:45:54Z</time>
      </trkpt>
      <trkpt lat="47.73849" lon="-2.2436">
        <ele>5.424560546875</ele>
        <time>2012-04-15T08:46:13Z</time>
      </trkpt>
      <trkpt lat="47.73787" lon="-2.24462">
        <ele>5.424560546875</ele>
        <time>2012-04-15T08:46:36Z</time>
      </trkpt>
      <trkpt lat="47.73737" lon="-2.24569">
        <ele>5.424560546875</ele>
        <time>2012-04-15T08:46:59Z</time>
      </trkpt>
      <trkpt lat="47.7372" lon="-2.24616">
        <ele>3.982666015625</ele>
        <time>2012-04-15T08:47:15Z</time>
      </trkpt>
      <trkpt lat="47.7372" lon="-2.24619">
        <ele>3.982666015625</ele>
        <time>2012-04-15T08:47:34Z</time>
      </trkpt>
      <trkpt lat="47.73712" lon="-2.24644">
        <ele>3.021240234375</ele>
        <time>2012-04-15T08:47:52Z</time>
      </trkpt>
      <trkpt lat="47.73711" lon="-2.24647">
        <ele>2.5406494140625</ele>
        <time>2012-04-15T08:48:06Z</time>
      </trkpt>
      <trkpt lat="47.73706" lon="-2.2466">
        <ele>2.5406494140625</ele>
        <time>2012-04-15T09:04:21Z</time>
      </trkpt>
      <trkpt lat="47.73686" lon="-2.24733">
        <ele>3.021240234375</ele>
        <time>2012-04-15T09:04:39Z</time>
      </trkpt>
      <trkpt lat="47.73657" lon="-2.24862">
        <ele>2.06005859375</ele>
        <time>2012-04-15T09:05:06Z</time>
      </trkpt>
      <trkpt lat="47.73645" lon="-2.24936">
        <ele>0.137451171875</ele>
        <time>2012-04-15T09:05:22Z</time>
      </trkpt>
      <trkpt lat="47.73639" lon="-2.2502">
        <ele>2.06005859375</ele>
        <time>2012-04-15T09:05:37Z</time>
      </trkpt>
      <trkpt lat="47.7365" lon="-2.25121">
        <ele>1.579345703125</ele>
        <time>2012-04-15T09:05:55Z</time>
      </trkpt>
      <trkpt lat="47.73685" lon="-2.25217">
        <ele>7.827880859375</ele>
        <time>2012-04-15T09:06:14Z</time>
      </trkpt>
      <trkpt lat="47.7371" lon="-2.25278">
        <ele>9.2698974609375</ele>
        <time>2012-04-15T09:06:26Z</time>
      </trkpt>
      <trkpt lat="47.73727" lon="-2.25328">
        <ele>8.7891845703125</ele>
        <time>2012-04-15T09:06:36Z</time>
      </trkpt>
      <trkpt lat="47.73763" lon="-2.25435">
        <ele>8.7891845703125</ele>
        <time>2012-04-15T09:06:58Z</time>
      </trkpt>
      <trkpt lat="47.73793" lon="-2.25529">
        <ele>6.866455078125</ele>
        <time>2012-04-15T09:07:18Z</time>
      </trkpt>
      <trkpt lat="47.73825" lon="-2.25614">
        <ele>8.30859375</ele>
        <time>2012-04-15T09:07:35Z</time>
      </trkpt>
      <trkpt lat="47.73828" lon="-2.25619">
        <ele>8.30859375</ele>
        <time>2012-04-15T09:07:36Z</time>
      </trkpt>
      <trkpt lat="47.73878" lon="-2.25675">
        <ele>7.827880859375</ele>
        <time>2012-04-15T09:07:51Z</time>
      </trkpt>
      <trkpt lat="47.73918" lon="-2.25712">
        <ele>8.30859375</ele>
        <time>2012-04-15T09:08:07Z</time>
      </trkpt>
      <trkpt lat="47.73953" lon="-2.25743">
        <ele>7.34716796875</ele>
        <time>2012-04-15T09:08:25Z</time>
      </trkpt>
      <trkpt lat="47.74015" lon="-2.25802">
        <ele>7.34716796875</ele>
        <time>2012-04-15T09:08:46Z</time>
      </trkpt>
      <trkpt lat="47.74076" lon="-2.25874">
        <ele>9.2698974609375</ele>
        <time>2012-04-15T09:09:07Z</time>
      </trkpt>
      <trkpt lat="47.74167" lon="-2.2595">
        <ele>6.866455078125</ele>
        <time>2012-04-15T09:09:34Z</time>
      </trkpt>
      <trkpt lat="47.74255" lon="-2.25979">
        <ele>5.424560546875</ele>
        <time>2012-04-15T09:09:58Z</time>
      </trkpt>
      <trkpt lat="47.74329" lon="-2.26">
        <ele>5.9052734375</ele>
        <time>2012-04-15T09:10:17Z</time>
      </trkpt>
      <trkpt lat="47.7439" lon="-2.26056">
        <ele>7.34716796875</ele>
        <time>2012-04-15T09:10:36Z</time>
      </trkpt>
      <trkpt lat="47.74436" lon="-2.26125">
        <ele>6.3858642578125</ele>
        <time>2012-04-15T09:10:55Z</time>
      </trkpt>
      <trkpt lat="47.74485" lon="-2.26194">
        <ele>5.9052734375</ele>
        <time>2012-04-15T09:11:14Z</time>
      </trkpt>
      <trkpt lat="47.74506" lon="-2.2624">
        <ele>5.424560546875</ele>
        <time>2012-04-15T09:11:24Z</time>
      </trkpt>
      <trkpt lat="47.74526" lon="-2.26353">
        <ele>6.866455078125</ele>
        <time>2012-04-15T09:11:45Z</time>
      </trkpt>
      <trkpt lat="47.7453" lon="-2.26397">
        <ele>8.30859375</ele>
        <time>2012-04-15T09:11:55Z</time>
      </trkpt>
      <trkpt lat="47.7453" lon="-2.26417">
        <ele>7.34716796875</ele>
        <time>2012-04-15T09:12:04Z</time>
      </trkpt>
      <trkpt lat="47.74533" lon="-2.26482">
        <ele>3.982666015625</ele>
        <time>2012-04-15T09:12:16Z</time>
      </trkpt>
      <trkpt lat="47.74547" lon="-2.266">
        <ele>3.501953125</ele>
        <time>2012-04-15T09:12:34Z</time>
      </trkpt>
      <trkpt lat="47.74574" lon="-2.26685">
        <ele>3.982666015625</ele>
        <time>2012-04-15T09:12:52Z</time>
      </trkpt>
      <trkpt lat="47.7458" lon="-2.26699">
        <ele>3.982666015625</ele>
        <time>2012-04-15T09:12:55Z</time>
      </trkpt>
      <trkpt lat="47.74617" lon="-2.26754">
        <ele>3.982666015625</ele>
        <time>2012-04-15T09:13:09Z</time>
      </trkpt>
      <trkpt lat="47.74641" lon="-2.26814">
        <ele>4.4632568359375</ele>
        <time>2012-04-15T09:13:22Z</time>
      </trkpt>
      <trkpt lat="47.7463" lon="-2.26911">
        <ele>7.34716796875</ele>
        <time>2012-04-15T09:13:40Z</time>
      </trkpt>
      <trkpt lat="47.74616" lon="-2.2694">
        <ele>6.3858642578125</ele>
        <time>2012-04-15T09:13:46Z</time>
      </trkpt>
      <trkpt lat="47.74598" lon="-2.26956">
        <ele>4.4632568359375</ele>
        <time>2012-04-15T09:13:51Z</time>
      </trkpt>
      <trkpt lat="47.74534" lon="-2.26981">
        <ele>3.021240234375</ele>
        <time>2012-04-15T09:14:08Z</time>
      </trkpt>
      <trkpt lat="47.74527" lon="-2.26985">
        <ele>3.021240234375</ele>
        <time>2012-04-15T09:14:10Z</time>
      </trkpt>
      <trkpt lat="47.74477" lon="-2.27034">
        <ele>5.9052734375</ele>
        <time>2012-04-15T09:14:26Z</time>
      </trkpt>
      <trkpt lat="47.74415" lon="-2.27144">
        <ele>3.021240234375</ele>
        <time>2012-04-15T09:14:49Z</time>
      </trkpt>
      <trkpt lat="47.744" lon="-2.27254">
        <ele>3.021240234375</ele>
        <time>2012-04-15T09:15:07Z</time>
      </trkpt>
      <trkpt lat="47.7438" lon="-2.27392">
        <ele>3.982666015625</ele>
        <time>2012-04-15T09:15:31Z</time>
      </trkpt>
      <trkpt lat="47.74329" lon="-2.27479">
        <ele>3.501953125</ele>
        <time>2012-04-15T09:15:51Z</time>
      </trkpt>
      <trkpt lat="47.74289" lon="-2.2759">
        <ele>4.4632568359375</ele>
        <time>2012-04-15T09:16:13Z</time>
      </trkpt>
      <trkpt lat="47.74277" lon="-2.27686">
        <ele>3.982666015625</ele>
        <time>2012-04-15T09:16:30Z</time>
      </trkpt>
      <trkpt lat="47.74278" lon="-2.27809">
        <ele>3.021240234375</ele>
        <time>2012-04-15T09:16:52Z</time>
      </trkpt>
      <trkpt lat="47.74295" lon="-2.27952">
        <ele>1.579345703125</ele>
        <time>2012-04-15T09:17:17Z</time>
      </trkpt>
      <trkpt lat="47.74311" lon="-2.2804">
        <ele>2.5406494140625</ele>
        <time>2012-04-15T09:17:33Z</time>
      </trkpt>
      <trkpt lat="47.74347" lon="-2.28124">
        <ele>1.579345703125</ele>
        <time>2012-04-15T09:17:50Z</time>
      </trkpt>
      <trkpt lat="47.7438" lon="-2.28222">
        <ele>2.5406494140625</ele>
        <time>2012-04-15T09:18:09Z</time>
      </trkpt>
      <trkpt lat="47.74386" lon="-2.2825">
        <ele>1.579345703125</ele>
        <time>2012-04-15T09:18:14Z</time>
      </trkpt>
      <trkpt lat="47.74388" lon="-2.28286">
        <ele>2.5406494140625</ele>
        <time>2012-04-15T09:18:20Z</time>
      </trkpt>
      <trkpt lat="47.7439" lon="-2.28356">
        <ele>1.0986328125</ele>
        <time>2012-04-15T09:18:32Z</time>
      </trkpt>
      <trkpt lat="47.74409" lon="-2.28445">
        <ele>1.579345703125</ele>
        <time>2012-04-15T09:18:49Z</time>
      </trkpt>
      <trkpt lat="47.74424" lon="-2.28527">
        <ele>3.021240234375</ele>
        <time>2012-04-15T09:19:06Z</time>
      </trkpt>
      <trkpt lat="47.74441" lon="-2.28636">
        <ele>4.94384765625</ele>
        <time>2012-04-15T09:19:26Z</time>
      </trkpt>
      <trkpt lat="47.74453" lon="-2.28695">
        <ele>7.827880859375</ele>
        <time>2012-04-15T09:19:37Z</time>
      </trkpt>
      <trkpt lat="47.74468" lon="-2.28782">
        <ele>6.866455078125</ele>
        <time>2012-04-15T09:19:53Z</time>
      </trkpt>
      <trkpt lat="47.74478" lon="-2.28817">
        <ele>6.3858642578125</ele>
        <time>2012-04-15T09:19:59Z</time>
      </trkpt>
      <trkpt lat="47.74487" lon="-2.28839">
        <ele>5.9052734375</ele>
        <time>2012-04-15T09:20:03Z</time>
      </trkpt>
      <trkpt lat="47.74528" lon="-2.28898">
        <ele>4.94384765625</ele>
        <time>2012-04-15T09:20:18Z</time>
      </trkpt>
      <trkpt lat="47.74541" lon="-2.28914">
        <ele>5.9052734375</ele>
        <time>2012-04-15T09:20:22Z</time>
      </trkpt>
      <trkpt lat="47.74569" lon="-2.28931">
        <ele>6.3858642578125</ele>
        <time>2012-04-15T09:20:29Z</time>
      </trkpt>
      <trkpt lat="47.74647" lon="-2.28984">
        <ele>7.827880859375</ele>
        <time>2012-04-15T09:20:50Z</time>
      </trkpt>
      <trkpt lat="47.74733" lon="-2.29054">
        <ele>7.34716796875</ele>
        <time>2012-04-15T09:21:15Z</time>
      </trkpt>
      <trkpt lat="47.74803" lon="-2.29114">
        <ele>7.827880859375</ele>
        <time>2012-04-15T09:21:36Z</time>
      </trkpt>
      <trkpt lat="47.74869" lon="-2.29192">
        <ele>6.3858642578125</ele>
        <time>2012-04-15T09:21:58Z</time>
      </trkpt>
      <trkpt lat="47.74925" lon="-2.29274">
        <ele>6.866455078125</ele>
        <time>2012-04-15T09:22:18Z</time>
      </trkpt>
      <trkpt lat="47.74965" lon="-2.29339">
        <ele>7.827880859375</ele>
        <time>2012-04-15T09:22:33Z</time>
      </trkpt>
      <trkpt lat="47.74993" lon="-2.29396">
        <ele>6.866455078125</ele>
        <time>2012-04-15T09:22:46Z</time>
      </trkpt>
      <trkpt lat="47.75024" lon="-2.29472">
        <ele>5.9052734375</ele>
        <time>2012-04-15T09:23:02Z</time>
      </trkpt>
      <trkpt lat="47.75063" lon="-2.29592">
        <ele>5.9052734375</ele>
        <time>2012-04-15T09:23:27Z</time>
      </trkpt>
      <trkpt lat="47.75083" lon="-2.29657">
        <ele>3.982666015625</ele>
        <time>2012-04-15T09:23:42Z</time>
      </trkpt>
      <trkpt lat="47.75112" lon="-2.29766">
        <ele>3.982666015625</ele>
        <time>2012-04-15T09:24:03Z</time>
      </trkpt>
      <trkpt lat="47.75129" lon="-2.29901">
        <ele>5.424560546875</ele>
        <time>2012-04-15T09:24:27Z</time>
      </trkpt>
      <trkpt lat="47.75166" lon="-2.30043">
        <ele>5.9052734375</ele>
        <time>2012-04-15T09:24:53Z</time>
      </trkpt>
      <trkpt lat="47.75238" lon="-2.30198">
        <ele>5.424560546875</ele>
        <time>2012-04-15T09:25:20Z</time>
      </trkpt>
      <trkpt lat="47.75245" lon="-2.3025">
        <ele>5.9052734375</ele>
        <time>2012-04-15T09:25:39Z</time>
      </trkpt>
      <trkpt lat="47.7537" lon="-2.30321">
        <ele>5.9052734375</ele>
        <time>2012-04-15T09:26:04Z</time>
      </trkpt>
      <trkpt lat="47.75407" lon="-2.30407">
        <ele>6.3858642578125</ele>
        <time>2012-04-15T09:26:23Z</time>
      </trkpt>
      <trkpt lat="47.75437" lon="-2.30502">
        <ele>6.3858642578125</ele>
        <time>2012-04-15T09:26:44Z</time>
      </trkpt>
      <trkpt lat="47.75471" lon="-2.3064">
        <ele>6.3858642578125</ele>
        <time>2012-04-15T09:27:10Z</time>
      </trkpt>
      <trkpt lat="47.75506" lon="-2.30793">
        <ele>7.34716796875</ele>
        <time>2012-04-15T09:27:38Z</time>
      </trkpt>
      <trkpt lat="47.75547" lon="-2.309">
        <ele>7.827880859375</ele>
        <time>2012-04-15T09:27:59Z</time>
      </trkpt>
      <trkpt lat="47.75606" lon="-2.30974">
        <ele>6.3858642578125</ele>
        <time>2012-04-15T09:28:19Z</time>
      </trkpt>
      <trkpt lat="47.75677" lon="-2.31063">
        <ele>7.34716796875</ele>
        <time>2012-04-15T09:28:44Z</time>
      </trkpt>
      <trkpt lat="47.75711" lon="-2.31164">
        <ele>5.424560546875</ele>
        <time>2012-04-15T09:29:04Z</time>
      </trkpt>
      <trkpt lat="47.7572" lon="-2.31288">
        <ele>6.866455078125</ele>
        <time>2012-04-15T09:29:25Z</time>
      </trkpt>
      <trkpt lat="47.75705" lon="-2.31387">
        <ele>6.866455078125</ele>
        <time>2012-04-15T09:29:42Z</time>
      </trkpt>
      <trkpt lat="47.75696" lon="-2.31423">
        <ele>7.827880859375</ele>
        <time>2012-04-15T09:29:48Z</time>
      </trkpt>
      <trkpt lat="47.75694" lon="-2.31453">
        <ele>6.866455078125</ele>
        <time>2012-04-15T09:29:53Z</time>
      </trkpt>
      <trkpt lat="47.75718" lon="-2.31531">
        <ele>7.827880859375</ele>
        <time>2012-04-15T09:30:10Z</time>
      </trkpt>
      <trkpt lat="47.75729" lon="-2.3155">
        <ele>8.30859375</ele>
        <time>2012-04-15T09:30:18Z</time>
      </trkpt>
      <trkpt lat="47.75765" lon="-2.31584">
        <ele>7.827880859375</ele>
        <time>2012-04-15T09:30:31Z</time>
      </trkpt>
      <trkpt lat="47.75853" lon="-2.3165">
        <ele>8.30859375</ele>
        <time>2012-04-15T09:30:59Z</time>
      </trkpt>
      <trkpt lat="47.75935" lon="-2.3166">
        <ele>7.827880859375</ele>
        <time>2012-04-15T09:31:21Z</time>
      </trkpt>
      <trkpt lat="47.76015" lon="-2.31651">
        <ele>7.827880859375</ele>
        <time>2012-04-15T09:31:44Z</time>
      </trkpt>
      <trkpt lat="47.76067" lon="-2.31669">
        <ele>6.3858642578125</ele>
        <time>2012-04-15T09:32:00Z</time>
      </trkpt>
      <trkpt lat="47.76136" lon="-2.31705">
        <ele>8.7891845703125</ele>
        <time>2012-04-15T09:32:22Z</time>
      </trkpt>
      <trkpt lat="47.76206" lon="-2.31732">
        <ele>8.7891845703125</ele>
        <time>2012-04-15T09:32:43Z</time>
      </trkpt>
      <trkpt lat="47.76318" lon="-2.31761">
        <ele>7.827880859375</ele>
        <time>2012-04-15T09:33:14Z</time>
      </trkpt>
      <trkpt lat="47.76396" lon="-2.31774">
        <ele>7.827880859375</ele>
        <time>2012-04-15T09:33:36Z</time>
      </trkpt>
      <trkpt lat="47.76491" lon="-2.31778">
        <ele>7.34716796875</ele>
        <time>2012-04-15T09:34:02Z</time>
      </trkpt>
      <trkpt lat="47.76571" lon="-2.3175">
        <ele>7.34716796875</ele>
        <time>2012-04-15T09:34:26Z</time>
      </trkpt>
      <trkpt lat="47.76629" lon="-2.31675">
        <ele>6.866455078125</ele>
        <time>2012-04-15T09:34:47Z</time>
      </trkpt>
      <trkpt lat="47.76693" lon="-2.31618">
        <ele>6.3858642578125</ele>
        <time>2012-04-15T09:35:08Z</time>
      </trkpt>
      <trkpt lat="47.76726" lon="-2.31605">
        <ele>8.30859375</ele>
        <time>2012-04-15T09:35:18Z</time>
      </trkpt>
      <trkpt lat="47.76755" lon="-2.31594">
        <ele>8.7891845703125</ele>
        <time>2012-04-15T09:35:27Z</time>
      </trkpt>
      <trkpt lat="47.76794" lon="-2.31588">
        <ele>8.30859375</ele>
        <time>2012-04-15T09:35:40Z</time>
      </trkpt>
      <trkpt lat="47.76836" lon="-2.31584">
        <ele>10.231201171875</ele>
        <time>2012-04-15T09:35:53Z</time>
      </trkpt>
      <trkpt lat="47.76894" lon="-2.31579">
        <ele>10.711791992188</ele>
        <time>2012-04-15T09:36:11Z</time>
      </trkpt>
      <trkpt lat="47.76945" lon="-2.31575">
        <ele>10.231201171875</ele>
        <time>2012-04-15T09:36:26Z</time>
      </trkpt>
      <trkpt lat="47.76999" lon="-2.31568">
        <ele>9.7506103515625</ele>
        <time>2012-04-15T09:36:44Z</time>
      </trkpt>
      <trkpt lat="47.77002" lon="-2.31567">
        <ele>9.2698974609375</ele>
        <time>2012-04-15T09:36:45Z</time>
      </trkpt>
      <trkpt lat="47.77033" lon="-2.31581">
        <ele>10.231201171875</ele>
        <time>2012-04-15T09:36:56Z</time>
      </trkpt>
      <trkpt lat="47.77036" lon="-2.3158">
        <ele>9.7506103515625</ele>
        <time>2012-04-15T09:37:00Z</time>
      </trkpt>
      <trkpt lat="47.77068" lon="-2.31572">
        <ele>10.231201171875</ele>
        <time>2012-04-15T09:37:08Z</time>
      </trkpt>
      <trkpt lat="47.7712" lon="-2.31559">
        <ele>11.192504882812</ele>
        <time>2012-04-15T09:37:26Z</time>
      </trkpt>
      <trkpt lat="47.77181" lon="-2.31545">
        <ele>10.711791992188</ele>
        <time>2012-04-15T09:37:44Z</time>
      </trkpt>
      <trkpt lat="47.77261" lon="-2.31525">
        <ele>11.192504882812</ele>
        <time>2012-04-15T09:38:06Z</time>
      </trkpt>
      <trkpt lat="47.77328" lon="-2.3152">
        <ele>10.231201171875</ele>
        <time>2012-04-15T09:38:25Z</time>
      </trkpt>
      <trkpt lat="47.77357" lon="-2.31516">
        <ele>10.711791992188</ele>
        <time>2012-04-15T09:38:35Z</time>
      </trkpt>
      <trkpt lat="47.7736" lon="-2.31515">
        <ele>10.711791992188</ele>
        <time>2012-04-15T09:38:37Z</time>
      </trkpt>
      <trkpt lat="47.77402" lon="-2.31508">
        <ele>11.673217773438</ele>
        <time>2012-04-15T09:38:52Z</time>
      </trkpt>
      <trkpt lat="47.77465" lon="-2.31497">
        <ele>10.711791992188</ele>
        <time>2012-04-15T09:39:09Z</time>
      </trkpt>
      <trkpt lat="47.77558" lon="-2.31482">
        <ele>10.711791992188</ele>
        <time>2012-04-15T09:39:31Z</time>
      </trkpt>
      <trkpt lat="47.77633" lon="-2.31454">
        <ele>8.7891845703125</ele>
        <time>2012-04-15T09:39:50Z</time>
      </trkpt>
      <trkpt lat="47.77682" lon="-2.31437">
        <ele>8.30859375</ele>
        <time>2012-04-15T09:40:03Z</time>
      </trkpt>
      <trkpt lat="47.77762" lon="-2.31417">
        <ele>7.827880859375</ele>
        <time>2012-04-15T09:40:22Z</time>
      </trkpt>
      <trkpt lat="47.77831" lon="-2.31404">
        <ele>8.30859375</ele>
        <time>2012-04-15T09:40:38Z</time>
      </trkpt>
      <trkpt lat="47.77845" lon="-2.31409">
        <ele>8.30859375</ele>
        <time>2012-04-15T09:40:42Z</time>
      </trkpt>
      <trkpt lat="47.77908" lon="-2.3146">
        <ele>9.7506103515625</ele>
        <time>2012-04-15T09:40:59Z</time>
      </trkpt>
      <trkpt lat="47.78015" lon="-2.31551">
        <ele>8.30859375</ele>
        <time>2012-04-15T09:41:29Z</time>
      </trkpt>
      <trkpt lat="47.78089" lon="-2.31601">
        <ele>9.2698974609375</ele>
        <time>2012-04-15T09:41:51Z</time>
      </trkpt>
      <trkpt lat="47.78179" lon="-2.31648">
        <ele>9.2698974609375</ele>
        <time>2012-04-15T09:42:17Z</time>
      </trkpt>
      <trkpt lat="47.78272" lon="-2.31681">
        <ele>9.7506103515625</ele>
        <time>2012-04-15T09:42:42Z</time>
      </trkpt>
      <trkpt lat="47.78387" lon="-2.31742">
        <ele>9.2698974609375</ele>
        <time>2012-04-15T09:43:14Z</time>
      </trkpt>
      <trkpt lat="47.7847" lon="-2.31791">
        <ele>9.7506103515625</ele>
        <time>2012-04-15T09:43:38Z</time>
      </trkpt>
      <trkpt lat="47.78569" lon="-2.31854">
        <ele>11.192504882812</ele>
        <time>2012-04-15T09:44:09Z</time>
      </trkpt>
      <trkpt lat="47.78589" lon="-2.31863">
        <ele>12.15380859375</ele>
        <time>2012-04-15T09:44:25Z</time>
      </trkpt>
      <trkpt lat="47.78694" lon="-2.31911">
        <ele>13.115112304688</ele>
        <time>2012-04-15T09:44:49Z</time>
      </trkpt>
      <trkpt lat="47.78765" lon="-2.31954">
        <ele>13.115112304688</ele>
        <time>2012-04-15T09:45:11Z</time>
      </trkpt>
      <trkpt lat="47.78807" lon="-2.31979">
        <ele>13.595825195312</ele>
        <time>2012-04-15T09:45:24Z</time>
      </trkpt>
      <trkpt lat="47.78842" lon="-2.31999">
        <ele>15.037719726562</ele>
        <time>2012-04-15T09:45:34Z</time>
      </trkpt>
      <trkpt lat="47.78905" lon="-2.32037">
        <ele>13.115112304688</ele>
        <time>2012-04-15T09:45:53Z</time>
      </trkpt>
      <trkpt lat="47.78963" lon="-2.32081">
        <ele>12.15380859375</ele>
        <time>2012-04-15T09:46:12Z</time>
      </trkpt>
      <trkpt lat="47.78993" lon="-2.32138">
        <ele>11.673217773438</ele>
        <time>2012-04-15T09:46:25Z</time>
      </trkpt>
      <trkpt lat="47.79021" lon="-2.32213">
        <ele>13.115112304688</ele>
        <time>2012-04-15T09:46:41Z</time>
      </trkpt>
      <trkpt lat="47.79046" lon="-2.32301">
        <ele>11.192504882812</ele>
        <time>2012-04-15T09:46:59Z</time>
      </trkpt>
      <trkpt lat="47.79064" lon="-2.3239">
        <ele>10.711791992188</ele>
        <time>2012-04-15T09:47:18Z</time>
      </trkpt>
      <trkpt lat="47.79074" lon="-2.32463">
        <ele>7.827880859375</ele>
        <time>2012-04-15T09:47:32Z</time>
      </trkpt>
      <trkpt lat="47.79101" lon="-2.32534">
        <ele>7.827880859375</ele>
        <time>2012-04-15T09:47:46Z</time>
      </trkpt>
      <trkpt lat="47.79122" lon="-2.32574">
        <ele>8.7891845703125</ele>
        <time>2012-04-15T09:47:55Z</time>
      </trkpt>
      <trkpt lat="47.79132" lon="-2.32624">
        <ele>11.673217773438</ele>
        <time>2012-04-15T09:48:04Z</time>
      </trkpt>
      <trkpt lat="47.79165" lon="-2.32666">
        <ele>15.9990234375</ele>
        <time>2012-04-15T09:48:16Z</time>
      </trkpt>
      <trkpt lat="47.79193" lon="-2.32701">
        <ele>18.883056640625</ele>
        <time>2012-04-15T09:48:27Z</time>
      </trkpt>
      <trkpt lat="47.79243" lon="-2.32736">
        <ele>21.766967773438</ele>
        <time>2012-04-15T09:48:39Z</time>
      </trkpt>
      <trkpt lat="47.79295" lon="-2.32769">
        <ele>19.36376953125</ele>
        <time>2012-04-15T09:48:52Z</time>
      </trkpt>
      <trkpt lat="47.79339" lon="-2.32795">
        <ele>15.037719726562</ele>
        <time>2012-04-15T09:49:08Z</time>
      </trkpt>
      <trkpt lat="47.79404" lon="-2.32714">
        <ele>14.557006835938</ele>
        <time>2012-04-15T09:49:27Z</time>
      </trkpt>
      <trkpt lat="47.79453" lon="-2.32677">
        <ele>12.634399414062</ele>
        <time>2012-04-15T09:49:45Z</time>
      </trkpt>
      <trkpt lat="47.79523" lon="-2.32614">
        <ele>10.711791992188</ele>
        <time>2012-04-15T09:50:07Z</time>
      </trkpt>
      <trkpt lat="47.79588" lon="-2.32591">
        <ele>10.231201171875</ele>
        <time>2012-04-15T09:50:25Z</time>
      </trkpt>
      <trkpt lat="47.79647" lon="-2.32602">
        <ele>9.2698974609375</ele>
        <time>2012-04-15T09:50:41Z</time>
      </trkpt>
      <trkpt lat="47.79664" lon="-2.32607">
        <ele>8.30859375</ele>
        <time>2012-04-15T09:50:46Z</time>
      </trkpt>
      <trkpt lat="47.79706" lon="-2.32636">
        <ele>9.2698974609375</ele>
        <time>2012-04-15T09:50:58Z</time>
      </trkpt>
      <trkpt lat="47.79765" lon="-2.32723">
        <ele>10.231201171875</ele>
        <time>2012-04-15T09:51:20Z</time>
      </trkpt>
      <trkpt lat="47.7983" lon="-2.32765">
        <ele>10.231201171875</ele>
        <time>2012-04-15T09:51:39Z</time>
      </trkpt>
      <trkpt lat="47.79926" lon="-2.32778">
        <ele>10.231201171875</ele>
        <time>2012-04-15T09:52:04Z</time>
      </trkpt>
      <trkpt lat="47.79993" lon="-2.32825">
        <ele>10.711791992188</ele>
        <time>2012-04-15T09:52:26Z</time>
      </trkpt>
      <trkpt lat="47.80066" lon="-2.32876">
        <ele>10.711791992188</ele>
        <time>2012-04-15T09:52:49Z</time>
      </trkpt>
      <trkpt lat="47.80141" lon="-2.32929">
        <ele>10.231201171875</ele>
        <time>2012-04-15T09:53:12Z</time>
      </trkpt>
      <trkpt lat="47.80174" lon="-2.32987">
        <ele>10.711791992188</ele>
        <time>2012-04-15T09:53:27Z</time>
      </trkpt>
      <trkpt lat="47.80181" lon="-2.32998">
        <ele>11.192504882812</ele>
        <time>2012-04-15T09:53:30Z</time>
      </trkpt>
      <trkpt lat="47.80206" lon="-2.3304">
        <ele>10.711791992188</ele>
        <time>2012-04-15T09:53:41Z</time>
      </trkpt>
      <trkpt lat="47.80258" lon="-2.33092">
        <ele>11.192504882812</ele>
        <time>2012-04-15T09:53:58Z</time>
      </trkpt>
      <trkpt lat="47.8028" lon="-2.33122">
        <ele>13.595825195312</ele>
        <time>2012-04-15T09:54:08Z</time>
      </trkpt>
      <trkpt lat="47.80309" lon="-2.33191">
        <ele>11.673217773438</ele>
        <time>2012-04-15T09:54:20Z</time>
      </trkpt>
      <trkpt lat="47.8032" lon="-2.33319">
        <ele>10.711791992188</ele>
        <time>2012-04-15T09:54:40Z</time>
      </trkpt>
      <trkpt lat="47.80296" lon="-2.33418">
        <ele>7.827880859375</ele>
        <time>2012-04-15T09:54:57Z</time>
      </trkpt>
      <trkpt lat="47.80295" lon="-2.33551">
        <ele>7.34716796875</ele>
        <time>2012-04-15T09:55:19Z</time>
      </trkpt>
      <trkpt lat="47.80333" lon="-2.33723">
        <ele>8.30859375</ele>
        <time>2012-04-15T09:55:48Z</time>
      </trkpt>
      <trkpt lat="47.80392" lon="-2.33882">
        <ele>8.30859375</ele>
        <time>2012-04-15T09:56:16Z</time>
      </trkpt>
      <trkpt lat="47.80435" lon="-2.33972">
        <ele>9.7506103515625</ele>
        <time>2012-04-15T09:56:34Z</time>
      </trkpt>
      <trkpt lat="47.80473" lon="-2.34049">
        <ele>10.711791992188</ele>
        <time>2012-04-15T09:56:50Z</time>
      </trkpt>
      <trkpt lat="47.80509" lon="-2.3414">
        <ele>11.192504882812</ele>
        <time>2012-04-15T09:57:08Z</time>
      </trkpt>
      <trkpt lat="47.80536" lon="-2.34227">
        <ele>11.673217773438</ele>
        <time>2012-04-15T09:57:24Z</time>
      </trkpt>
      <trkpt lat="47.8056" lon="-2.343">
        <ele>13.115112304688</ele>
        <time>2012-04-15T09:57:37Z</time>
      </trkpt>
      <trkpt lat="47.80597" lon="-2.34391">
        <ele>13.115112304688</ele>
        <time>2012-04-15T09:57:53Z</time>
      </trkpt>
      <trkpt lat="47.80618" lon="-2.34494">
        <ele>12.634399414062</ele>
        <time>2012-04-15T09:58:10Z</time>
      </trkpt>
      <trkpt lat="47.80638" lon="-2.34586">
        <ele>13.115112304688</ele>
        <time>2012-04-15T09:58:26Z</time>
      </trkpt>
      <trkpt lat="47.80658" lon="-2.347">
        <ele>11.192504882812</ele>
        <time>2012-04-15T09:58:46Z</time>
      </trkpt>
      <trkpt lat="47.80678" lon="-2.34831">
        <ele>11.192504882812</ele>
        <time>2012-04-15T09:59:09Z</time>
      </trkpt>
      <trkpt lat="47.80714" lon="-2.3498">
        <ele>11.192504882812</ele>
        <time>2012-04-15T09:59:34Z</time>
      </trkpt>
      <trkpt lat="47.8075" lon="-2.35149">
        <ele>9.7506103515625</ele>
        <time>2012-04-15T10:00:01Z</time>
      </trkpt>
      <trkpt lat="47.80773" lon="-2.3526">
        <ele>8.7891845703125</ele>
        <time>2012-04-15T10:00:21Z</time>
      </trkpt>
      <trkpt lat="47.80803" lon="-2.35406">
        <ele>9.2698974609375</ele>
        <time>2012-04-15T10:00:47Z</time>
      </trkpt>
      <trkpt lat="47.80823" lon="-2.35517">
        <ele>8.7891845703125</ele>
        <time>2012-04-15T10:01:06Z</time>
      </trkpt>
      <trkpt lat="47.80818" lon="-2.35583">
        <ele>9.2698974609375</ele>
        <time>2012-04-15T10:01:18Z</time>
      </trkpt>
      <trkpt lat="47.80805" lon="-2.35706">
        <ele>7.827880859375</ele>
        <time>2012-04-15T10:01:40Z</time>
      </trkpt>
      <trkpt lat="47.80794" lon="-2.35806">
        <ele>7.827880859375</ele>
        <time>2012-04-15T10:01:57Z</time>
      </trkpt>
      <trkpt lat="47.80781" lon="-2.35934">
        <ele>7.34716796875</ele>
        <time>2012-04-15T10:02:20Z</time>
      </trkpt>
      <trkpt lat="47.80779" lon="-2.35963">
        <ele>6.866455078125</ele>
        <time>2012-04-15T10:02:34Z</time>
      </trkpt>
      <trkpt lat="47.80777" lon="-2.35985">
        <ele>6.866455078125</ele>
        <time>2012-04-15T10:04:50Z</time>
      </trkpt>
      <trkpt lat="47.8077" lon="-2.36064">
        <ele>6.866455078125</ele>
        <time>2012-04-15T10:05:06Z</time>
      </trkpt>
      <trkpt lat="47.80765" lon="-2.36214">
        <ele>7.34716796875</ele>
        <time>2012-04-15T10:05:33Z</time>
      </trkpt>
      <trkpt lat="47.80764" lon="-2.36299">
        <ele>6.866455078125</ele>
        <time>2012-04-15T10:05:48Z</time>
      </trkpt>
      <trkpt lat="47.80763" lon="-2.36422">
        <ele>7.34716796875</ele>
        <time>2012-04-15T10:06:10Z</time>
      </trkpt>
      <trkpt lat="47.80762" lon="-2.36514">
        <ele>7.34716796875</ele>
        <time>2012-04-15T10:06:26Z</time>
      </trkpt>
      <trkpt lat="47.8076" lon="-2.36594">
        <ele>9.2698974609375</ele>
        <time>2012-04-15T10:06:40Z</time>
      </trkpt>
      <trkpt lat="47.80756" lon="-2.36686">
        <ele>7.34716796875</ele>
        <time>2012-04-15T10:06:56Z</time>
      </trkpt>
      <trkpt lat="47.80749" lon="-2.36784">
        <ele>7.827880859375</ele>
        <time>2012-04-15T10:07:13Z</time>
      </trkpt>
      <trkpt lat="47.80747" lon="-2.36808">
        <ele>6.866455078125</ele>
        <time>2012-04-15T10:07:17Z</time>
      </trkpt>
      <trkpt lat="47.80727" lon="-2.36911">
        <ele>6.866455078125</ele>
        <time>2012-04-15T10:07:35Z</time>
      </trkpt>
      <trkpt lat="47.80679" lon="-2.36977">
        <ele>7.34716796875</ele>
        <time>2012-04-15T10:07:50Z</time>
      </trkpt>
      <trkpt lat="47.80583" lon="-2.37011">
        <ele>9.2698974609375</ele>
        <time>2012-04-15T10:08:12Z</time>
      </trkpt>
      <trkpt lat="47.80494" lon="-2.37058">
        <ele>8.7891845703125</ele>
        <time>2012-04-15T10:08:36Z</time>
      </trkpt>
      <trkpt lat="47.80446" lon="-2.37139">
        <ele>7.827880859375</ele>
        <time>2012-04-15T10:08:53Z</time>
      </trkpt>
      <trkpt lat="47.80414" lon="-2.37247">
        <ele>6.866455078125</ele>
        <time>2012-04-15T10:09:13Z</time>
      </trkpt>
      <trkpt lat="47.80405" lon="-2.37279">
        <ele>7.34716796875</ele>
        <time>2012-04-15T10:09:19Z</time>
      </trkpt>
      <trkpt lat="47.80409" lon="-2.37399">
        <ele>6.3858642578125</ele>
        <time>2012-04-15T10:09:38Z</time>
      </trkpt>
      <trkpt lat="47.80441" lon="-2.37572">
        <ele>7.34716796875</ele>
        <time>2012-04-15T10:10:01Z</time>
      </trkpt>
      <trkpt lat="47.80496" lon="-2.37737">
        <ele>8.30859375</ele>
        <time>2012-04-15T10:10:32Z</time>
      </trkpt>
      <trkpt lat="47.80534" lon="-2.37839">
        <ele>7.827880859375</ele>
        <time>2012-04-15T10:10:51Z</time>
      </trkpt>
      <trkpt lat="47.80574" lon="-2.37944">
        <ele>9.2698974609375</ele>
        <time>2012-04-15T10:11:13Z</time>
      </trkpt>
      <trkpt lat="47.80617" lon="-2.38024">
        <ele>8.30859375</ele>
        <time>2012-04-15T10:11:31Z</time>
      </trkpt>
      <trkpt lat="47.80675" lon="-2.38063">
        <ele>7.827880859375</ele>
        <time>2012-04-15T10:11:48Z</time>
      </trkpt>
      <trkpt lat="47.807" lon="-2.38073">
        <ele>7.34716796875</ele>
        <time>2012-04-15T10:11:56Z</time>
      </trkpt>
      <trkpt lat="47.80704" lon="-2.38074">
        <ele>7.34716796875</ele>
        <time>2012-04-15T10:11:58Z</time>
      </trkpt>
      <trkpt lat="47.80753" lon="-2.3809">
        <ele>5.9052734375</ele>
        <time>2012-04-15T10:12:14Z</time>
      </trkpt>
      <trkpt lat="47.80812" lon="-2.38109">
        <ele>6.3858642578125</ele>
        <time>2012-04-15T10:12:33Z</time>
      </trkpt>
      <trkpt lat="47.8083" lon="-2.38115">
        <ele>6.3858642578125</ele>
        <time>2012-04-15T10:12:39Z</time>
      </trkpt>
      <trkpt lat="47.80833" lon="-2.38116">
        <ele>6.866455078125</ele>
        <time>2012-04-15T10:12:52Z</time>
      </trkpt>
      <trkpt lat="47.80833" lon="-2.38116">
        <ele>7.34716796875</ele>
        <time>2012-04-15T10:12:58Z</time>
      </trkpt>
      <trkpt lat="47.80833" lon="-2.38116">
        <ele>7.34716796875</ele>
        <time>2012-04-15T10:13:03Z</time>
      </trkpt>
      <trkpt lat="47.80833" lon="-2.38116">
        <ele>7.34716796875</ele>
        <time>2012-04-15T10:13:16Z</time>
      </trkpt>
      <trkpt lat="47.80833" lon="-2.38116">
        <ele>6.866455078125</ele>
        <time>2012-04-15T10:22:33Z</time>
      </trkpt>
      <trkpt lat="47.80833" lon="-2.38116">
        <ele>6.3858642578125</ele>
        <time>2012-04-15T10:22:45Z</time>
      </trkpt>
      <trkpt lat="47.80833" lon="-2.38116">
        <ele>6.866455078125</ele>
        <time>2012-04-15T10:23:02Z</time>
      </trkpt>
      <trkpt lat="47.80833" lon="-2.38116">
        <ele>6.3858642578125</ele>
        <time>2012-04-15T10:23:28Z</time>
      </trkpt>
      <trkpt lat="47.80833" lon="-2.38116">
        <ele>6.3858642578125</ele>
        <time>2012-04-15T10:27:00Z</time>
      </trkpt>
    </trkseg>
  </trk>
</gpx>